M I D A S
Marine Information and Data Acquisition System
Tripno 655 of the Zeeleeuw from 2004-02-25 07:30:40 to 2004-02-25 11:38:24
Back to CruiseResearch ActivitiesStationsMapUnderway DataData graphs

EquipmentUnitsComment
TimeDGPSUTC
LatitudeDGPSDM.mWGS84
LongitudeDGPSDM.mWGS84
TemperatureSBE03/SBE38deg celciusITS90
ConductivitySBE21S/mITS90
SalinitySBE21 Practical Salinity Units
ChlorophylAChelsea fluorimeterg/lCalibrated in Aceton
Missing or incorrect values are displayed as -999
Sea surface data collected by the RV Zeeleeuw from 2004-02-25 07:30:40 to 2004-02-25 11:38:24
                                                                                    Next 1000 lines
Time Latitude Longitude Temperature Conductivity Salinity ChlorophylA
2004-02-25 07:30:48 51°13.593 2°56.107 12.239017 4.119097 31.595701 -0.882377
2004-02-25 07:30:54 51°13.593 2°56.106 12.219385 4.118992 31.594799 -0.882377
2004-02-25 07:30:59 51°13.594 2°56.104 12.209272 4.119097 31.595701 -0.848668
2004-02-25 07:31:04 51°13.594 2°56.101 12.19621 4.119097 31.596274 -0.882377
2004-02-25 07:31:08 51°13.595 2°56.098 12.19621 4.119097 31.596274 -0.882377
2004-02-25 07:31:14 51°13.597 2°56.093 12.179197 4.119097 31.595701 -0.882377
2004-02-25 07:31:20 51°13.598 2°56.087 12.203467 4.119097 31.596274 -0.848668
2004-02-25 07:31:24 51°13.6 2°56.083 12.214896 4.118992 31.595945 -0.848668
2004-02-25 07:31:30 51°13.602 2°56.076 12.234892 4.118992 31.595372 -0.848668
2004-02-25 07:31:34 51°13.603 2°56.071 12.242417 4.119097 31.596847 -0.848668
2004-02-25 07:31:40 51°13.606 2°56.063 12.224464 4.119097 31.596274 -0.882377
2004-02-25 07:31:44 51°13.608 2°56.057 12.224464 4.119097 31.596274 -0.882377
2004-02-25 07:31:50 51°13.61 2°56.048 12.231129 4.118992 31.595945 -0.848668
2004-02-25 07:31:54 51°13.612 2°56.042 12.23666 4.118992 31.595945 -0.848668
2004-02-25 07:32:00 51°13.616 2°56.032 12.241601 4.118992 31.595945 -0.882377
2004-02-25 07:32:04 51°13.618 2°56.026 12.275545 4.118992 31.595945 -0.882377
2004-02-25 07:32:10 51°13.622 2°56.016 12.275545 4.118992 31.595945 -0.882377
2004-02-25 07:32:14 51°13.624 2°56.009 12.25044 4.118992 31.595945 -0.848668
2004-02-25 07:32:20 51°13.628 2°55.999 12.249216 4.118887 31.595043 -0.882377
2004-02-25 07:32:24 51°13.631 2°55.992 12.246905 4.118887 31.595043 -0.882377
2004-02-25 07:32:30 51°13.635 2°55.982 12.243641 4.118887 31.595616 -0.882377
2004-02-25 07:32:34 51°13.638 2°55.975 12.248627 4.118992 31.596518 -0.848668
2004-02-25 07:32:40 51°13.642 2°55.964 12.248627 4.118992 31.596518 -0.848668
2004-02-25 07:32:44 51°13.645 2°55.956 12.250803 4.118887 31.595616 -0.882377
2004-02-25 07:32:50 51°13.648 2°55.945 12.244457 4.118887 31.595616 -0.848668
2004-02-25 07:32:55 51°13.652 2°55.936 12.251482 4.118887 31.595616 -0.848668
2004-02-25 07:33:00 51°13.655 2°55.926 12.253749 4.118887 31.595616 -0.848668
2004-02-25 07:33:04 51°13.657 2°55.918 12.265486 4.118781 31.594714 -0.916087
2004-02-25 07:33:10 51°13.661 2°55.907 12.24414 4.118887 31.595616 -0.882377
2004-02-25 07:33:14 51°13.663 2°55.899 12.24414 4.118887 31.595616 -0.882377
2004-02-25 07:33:20 51°13.667 2°55.887 12.276225 4.118887 31.595616 -0.882377
2004-02-25 07:33:24 51°13.669 2°55.878 12.245454 4.118887 31.596189 -0.882377
2004-02-25 07:33:30 51°13.672 2°55.866 12.264263 4.118781 31.594714 -0.882377
2004-02-25 07:33:34 51°13.674 2°55.858 12.269881 4.118781 31.594714 -0.882377
2004-02-25 07:33:40 51°13.677 2°55.846 12.254882 4.118781 31.594714 -0.882377
2004-02-25 07:33:44 51°13.679 2°55.838 12.254882 4.118781 31.594714 -0.882377
2004-02-25 07:33:50 51°13.681 2°55.825 12.270335 4.118781 31.594714 -0.848668
2004-02-25 07:33:55 51°13.683 2°55.815 12.263311 4.118887 31.595616 -0.882377
2004-02-25 07:34:00 51°13.685 2°55.805 12.273823 4.118781 31.595287 -0.882377
2004-02-25 07:34:04 51°13.686 2°55.796 12.288819 4.118781 31.594714 -0.882377
2004-02-25 07:34:10 51°13.688 2°55.784 12.224419 4.118781 31.595287 -0.882377
2004-02-25 07:34:15 51°13.689 2°55.773 12.224419 4.118781 31.595287 -0.882377
2004-02-25 07:34:20 51°13.69 2°55.764 12.345735 4.118781 31.595287 -0.848668
2004-02-25 07:34:24 51°13.69 2°55.757 12.243777 4.118781 31.595287 -0.916087
2004-02-25 07:34:30 51°13.691 2°55.751 12.320113 4.118676 31.593812 -0.882377
2004-02-25 07:34:35 51°13.691 2°55.749 12.400476 4.118781 31.594714 -0.848668
2004-02-25 07:34:38 51°13.691 2°55.749 12.322739 4.118781 31.594714 -0.848668
2004-02-25 07:34:44 51°13.692 2°55.751 12.322739 4.118781 31.594714 -0.848668
2004-02-25 07:34:48 51°13.692 2°55.753 12.295704 4.118781 31.594714 -0.882377
2004-02-25 07:34:54 51°13.694 2°55.756 12.380123 4.118781 31.595287 -0.882377
2004-02-25 07:35:00 51°13.697 2°55.76 12.311691 4.118781 31.596434 -0.882377
2004-02-25 07:35:04 51°13.7 2°55.762 12.319886 4.118781 31.598154 -0.882377
2004-02-25 07:35:10 51°13.704 2°55.765 12.331386 4.118781 31.598727 -0.882377
2004-02-25 07:35:14 51°13.706 2°55.767 12.331386 4.118781 31.598727 -0.882377
2004-02-25 07:35:18 51°13.709 2°55.768 12.195348 4.118676 31.598971 -0.848668
2004-02-25 07:35:24 51°13.71 2°55.769 12.213853 4.118781 31.598727 -0.882377
2004-02-25 07:35:28 51°13.711 2°55.77 12.261861 4.118676 31.597251 -0.916087
2004-02-25 07:35:34 51°13.71 2°55.769 12.228046 4.118676 31.596105 -0.882377
2004-02-25 07:35:39 51°13.709 2°55.769 12.228046 4.118676 31.596105 -0.882377
2004-02-25 07:35:44 51°13.707 2°55.768 12.230358 4.118676 31.595532 -0.882377
2004-02-25 07:35:48 51°13.705 2°55.767 12.237567 4.118781 31.595861 -0.882377
2004-02-25 07:35:55 51°13.7 2°55.765 12.264398 4.118781 31.595861 -0.882377
2004-02-25 07:36:00 51°13.696 2°55.763 12.264806 4.11857 31.594056 -0.882377
2004-02-25 07:36:04 51°13.694 2°55.762 12.324821 4.118676 31.594958 -0.882377
2004-02-25 07:36:10 51°13.69 2°55.761 12.324821 4.118676 31.594958 -0.882377
2004-02-25 07:36:14 51°13.689 2°55.76 12.286644 4.118676 31.594958 -0.882377
2004-02-25 07:36:20 51°13.69 2°55.76 12.356098 4.11857 31.594056 -0.848668
2004-02-25 07:36:24 51°13.692 2°55.759 12.35741 4.118676 31.594958 -0.882377
2004-02-25 07:36:30 51°13.696 2°55.758 12.373473 4.118676 31.594958 -0.848668
2004-02-25 07:36:34 51°13.698 2°55.756 12.354469 4.118676 31.595532 -0.882377
2004-02-25 07:36:39 51°13.701 2°55.754 12.354469 4.118676 31.595532 -0.882377
2004-02-25 07:36:44 51°13.705 2°55.751 12.270425 4.118465 31.594301 -0.882377
2004-02-25 07:36:50 51°13.709 2°55.747 12.310559 4.11857 31.595203 -0.848668
2004-02-25 07:36:54 51°13.713 2°55.744 12.265169 4.118676 31.596678 -0.882377
2004-02-25 07:36:59 51°13.717 2°55.739 12.318528 4.118676 31.596678 -0.882377
2004-02-25 07:37:04 51°13.722 2°55.734 12.295206 4.118676 31.596678 -0.882377
2004-02-25 07:37:08 51°13.727 2°55.73 12.260909 4.11857 31.59463 -0.848668
2004-02-25 07:37:14 51°13.733 2°55.723 12.260909 4.11857 31.59463 -0.848668
2004-02-25 07:37:19 51°13.739 2°55.716 12.264398 4.11857 31.59463 -0.916087
2004-02-25 07:37:24 51°13.746 2°55.71 12.235073 4.11857 31.594056 -0.916087
2004-02-25 07:37:28 51°13.751 2°55.704 12.254111 4.118465 31.593154 -0.848668
2004-02-25 07:37:34 51°13.759 2°55.695 12.240694 4.11857 31.594056 -0.848668
2004-02-25 07:37:39 51°13.766 2°55.688 12.235527 4.11857 31.59463 -0.882377
2004-02-25 07:37:44 51°13.773 2°55.68 12.235527 4.11857 31.59463 -0.882377
2004-02-25 07:37:48 51°13.779 2°55.674 12.223829 4.118465 31.594301 -0.848668
2004-02-25 07:37:54 51°13.788 2°55.665 12.237204 4.118465 31.594301 -0.882377
2004-02-25 07:37:58 51°13.795 2°55.659 12.218161 4.118465 31.594301 -0.848668
2004-02-25 07:38:04 51°13.805 2°55.652 12.235255 4.118465 31.594874 -0.814958
2004-02-25 07:38:08 51°13.812 2°55.646 12.235255 4.118465 31.594874 -0.814958
2004-02-25 07:38:14 51°13.822 2°55.638 12.247177 4.118465 31.595447 -0.848668
2004-02-25 07:38:18 51°13.829 2°55.633 12.249851 4.118465 31.595447 -0.882377
2004-02-25 07:38:24 51°13.84 2°55.624 12.248219 4.118465 31.59602 -0.882377
2004-02-25 07:38:28 51°13.847 2°55.619 12.265033 4.118465 31.595447 -0.882377
2004-02-25 07:38:34 51°13.858 2°55.611 12.241828 4.118465 31.59602 -0.882377
2004-02-25 07:38:38 51°13.865 2°55.605 12.300278 4.118465 31.59602 -0.848668
2004-02-25 07:38:44 51°13.876 2°55.597 12.300278 4.118465 31.59602 -0.848668
2004-02-25 07:38:48 51°13.884 2°55.592 12.271422 4.118465 31.59602 -0.848668
2004-02-25 07:38:54 51°13.895 2°55.584 12.224691 4.118359 31.595118 -0.848668
2004-02-25 07:38:59 51°13.905 2°55.579 12.291355 4.118359 31.595692 -0.916087
2004-02-25 07:39:04 51°13.914 2°55.573 12.241465 4.118359 31.595692 -0.882377
2004-02-25 07:39:10 51°13.926 2°55.565 12.241465 4.118359 31.595692 -0.882377
2004-02-25 07:39:14 51°13.934 2°55.559 12.257057 4.118359 31.596265 -0.882377
2004-02-25 07:39:18 51°13.941 2°55.554 12.269881 4.118254 31.595363 -0.916087
2004-02-25 07:39:24 51°13.953 2°55.546 12.239607 4.118465 31.597167 -0.882377
2004-02-25 07:39:28 51°13.961 2°55.541 12.241828 4.118359 31.595692 -0.848668
2004-02-25 07:39:34 51°13.972 2°55.533 12.219884 4.118359 31.594545 -0.882377
2004-02-25 07:39:38 51°13.98 2°55.527 12.219884 4.118359 31.594545 -0.882377
2004-02-25 07:39:44 51°13.992 2°55.519 12.276497 4.118359 31.595118 -0.882377
2004-02-25 07:39:49 51°14.002 2°55.513 12.214125 4.118254 31.594216 -0.848668
2004-02-25 07:39:54 51°14.011 2°55.506 12.237159 4.118254 31.594789 -0.882377
2004-02-25 07:39:59 51°14.021 2°55.5 12.227275 4.118359 31.595692 -0.882377
2004-02-25 07:40:04 51°14.031 2°55.493 12.296429 4.118254 31.594789 -0.882377
2004-02-25 07:40:09 51°14.04 2°55.486 12.296429 4.118254 31.594789 -0.882377
2004-02-25 07:40:14 51°14.05 2°55.479 12.234801 4.118254 31.595936 -0.848668
2004-02-25 07:40:19 51°14.06 2°55.473 12.222786 4.118149 31.595034 -0.848668
2004-02-25 07:40:24 51°14.069 2°55.465 12.279487 4.11836 31.596838 -0.848668
2004-02-25 07:40:28 51°14.077 2°55.459 12.228001 4.118254 31.595363 -0.882377
2004-02-25 07:40:34 51°14.088 2°55.45 12.276134 4.118254 31.595936 -0.882377
2004-02-25 07:40:39 51°14.099 2°55.442 12.271558 4.118254 31.595363 -0.882377
2004-02-25 07:40:44 51°14.109 2°55.434 12.271558 4.118254 31.595363 -0.882377
2004-02-25 07:40:50 51°14.123 2°55.422 12.207005 4.118254 31.595363 -0.882377
2004-02-25 07:40:54 51°14.132 2°55.415 12.246315 4.118149 31.59446 -0.882377
2004-02-25 07:40:58 51°14.141 2°55.407 12.226142 4.118149 31.59446 -0.848668
2004-02-25 07:41:04 51°14.155 2°55.394 12.275137 4.118149 31.595034 -0.848668
2004-02-25 07:41:10 51°14.17 2°55.379 12.232262 4.118149 31.595034 -0.848668
2004-02-25 07:41:14 51°14.179 2°55.37 12.232262 4.118149 31.595034 -0.848668
2004-02-25 07:41:18 51°14.189 2°55.359 12.276361 4.118043 31.594705 -0.882377
2004-02-25 07:41:24 51°14.203 2°55.342 12.228998 4.118043 31.595278 -0.882377
2004-02-25 07:41:29 51°14.215 2°55.327 12.270244 4.117938 31.593803 -0.916087
2004-02-25 07:41:34 51°14.226 2°55.312 12.211948 4.118149 31.595607 -0.882377
2004-02-25 07:41:38 51°14.235 2°55.299 12.247675 4.118043 31.595278 -0.882377
2004-02-25 07:41:44 51°14.248 2°55.278 12.247675 4.118043 31.595278 -0.882377
2004-02-25 07:41:50 51°14.261 2°55.257 12.215758 4.118149 31.59618 -0.882377
2004-02-25 07:41:54 51°14.269 2°55.243 12.176565 4.118043 31.595278 -0.848668
2004-02-25 07:42:00 51°14.282 2°55.22 12.258734 4.117938 31.593803 -0.882377
2004-02-25 07:42:04 51°14.29 2°55.205 12.16109 4.118043 31.595278 -0.882377
2004-02-25 07:42:10 51°14.303 2°55.181 12.16109 4.118043 31.595278 -0.882377
2004-02-25 07:42:14 51°14.311 2°55.165 12.191446 4.117938 31.594376 -0.848668
2004-02-25 07:42:19 51°14.321 2°55.145 12.270244 4.117727 31.591998 -0.882377
2004-02-25 07:42:24 51°14.332 2°55.124 12.060712 4.118465 31.598887 -0.882377
2004-02-25 07:42:30 51°14.344 2°55.1 12.163813 4.117832 31.594047 -0.882377
2004-02-25 07:42:34 51°14.353 2°55.084 12.138666 4.118149 31.595607 -0.848668
2004-02-25 07:42:38 51°14.361 2°55.068 12.037935 4.118254 31.598229 -0.882377
2004-02-25 07:42:44 51°14.374 2°55.042 12.037935 4.118254 31.598229 -0.882377
2004-02-25 07:42:50 51°14.385 2°55.016 12.203875 4.117516 31.591913 -0.882377
2004-02-25 07:42:54 51°14.391 2°54.997 12.082481 4.118254 31.59995 -0.882377
2004-02-25 07:42:59 51°14.397 2°54.972 12.17956 4.118149 31.597901 -0.848668
2004-02-25 07:43:04 51°14.402 2°54.946 12.178108 4.117832 31.598061 -0.882377
2004-02-25 07:43:09 51°14.404 2°54.92 12.178108 4.117832 31.598061 -0.882377
2004-02-25 07:43:14 51°14.406 2°54.894 12.099882 4.117938 31.60011 -0.848668
2004-02-25 07:43:18 51°14.407 2°54.873 12.043119 4.118254 31.600523 -0.848668
2004-02-25 07:43:24 51°14.407 2°54.844 12.033888 4.117938 31.597243 -0.848668
2004-02-25 07:43:28 51°14.407 2°54.825 12.05062 4.117938 31.597243 -0.848668
2004-02-25 07:43:34 51°14.406 2°54.797 12.141072 4.117516 31.59306 -0.882377
2004-02-25 07:43:39 51°14.405 2°54.775 12.141072 4.117516 31.59306 -0.882377
2004-02-25 07:43:44 51°14.404 2°54.752 12.134035 4.117305 31.592402 -0.882377
2004-02-25 07:43:48 51°14.403 2°54.735 12.055257 4.118254 31.59995 -0.882377
2004-02-25 07:43:54 51°14.401 2°54.709 12.049302 4.117622 31.594536 -0.882377
2004-02-25 07:43:58 51°14.399 2°54.692 12.091023 4.117622 31.595109 -0.848668
2004-02-25 07:44:04 51°14.398 2°54.667 12.064757 4.117305 31.592976 -0.848668
2004-02-25 07:44:09 51°14.396 2°54.647 12.074665 4.116673 31.587562 -0.882377
2004-02-25 07:44:14 51°14.394 2°54.626 12.074665 4.116673 31.587562 -0.882377
2004-02-25 07:44:19 51°14.393 2°54.606 12.069939 4.117411 31.594451 -0.882377
2004-02-25 07:44:24 51°14.392 2°54.586 12.133899 4.116989 31.590842 -0.848668
2004-02-25 07:44:28 51°14.391 2°54.57 12.065985 4.117094 31.591744 -0.882377
2004-02-25 07:44:34 51°14.39 2°54.546 12.062985 4.117516 31.595927 -0.882377
2004-02-25 07:44:38 51°14.389 2°54.531 12.053666 4.117727 31.595438 -0.848668
2004-02-25 07:44:44 51°14.388 2°54.507 12.053666 4.117727 31.595438 -0.848668
2004-02-25 07:44:48 51°14.386 2°54.491 12.106378 4.117094 31.591744 -0.882377
2004-02-25 07:44:54 51°14.385 2°54.466 12.024884 4.117516 31.595354 -0.848668
2004-02-25 07:44:59 51°14.382 2°54.444 12.114645 4.117305 31.594122 -0.882377
2004-02-25 07:45:04 51°14.379 2°54.422 12.111147 4.116989 31.590842 -0.882377
2004-02-25 07:45:09 51°14.374 2°54.399 12.095021 4.1172 31.59322 -0.848668
2004-02-25 07:45:14 51°14.368 2°54.375 12.095021 4.1172 31.59322 -0.848668
2004-02-25 07:45:19 51°14.361 2°54.352 12.132718 4.116883 31.591086 -0.848668
2004-02-25 07:45:24 51°14.354 2°54.327 12.021974 4.117305 31.595269 -0.848668
2004-02-25 07:45:28 51°14.347 2°54.307 12.11855 4.116989 31.593136 -0.848668
2004-02-25 07:45:34 51°14.338 2°54.276 12.054075 4.117411 31.595025 -0.882377
2004-02-25 07:45:39 51°14.328 2°54.251 12.086343 4.116567 31.589526 -0.848668
2004-02-25 07:45:44 51°14.32 2°54.223 12.086343 4.116567 31.589526 -0.848668
2004-02-25 07:45:48 51°14.312 2°54.203 12.066439 4.117516 31.597074 -0.882377
2004-02-25 07:45:54 51°14.3 2°54.17 12.05453 4.116883 31.592233 -0.882377
2004-02-25 07:45:59 51°14.291 2°54.143 12.09275 4.116989 31.591989 -0.882377
2004-02-25 07:46:04 51°14.282 2°54.116 12.104516 4.116567 31.588379 -0.882377
2004-02-25 07:46:08 51°14.274 2°54.094 12.052075 4.116989 31.591989 -0.848668
2004-02-25 07:46:14 51°14.263 2°54.061 12.052075 4.116989 31.591989 -0.848668
2004-02-25 07:46:19 51°14.253 2°54.034 12.088933 4.117305 31.594696 -0.848668
2004-02-25 07:46:24 51°14.244 2°54.006 12.086162 4.116567 31.589526 -0.882377
2004-02-25 07:46:29 51°14.234 2°53.979 12.088479 4.117305 31.595269 -0.882377
2004-02-25 07:46:34 51°14.224 2°53.951 12.00851 4.117305 31.594122 -0.882377
2004-02-25 07:46:39 51°14.214 2°53.924 12.00851 4.117305 31.594122 -0.882377
2004-02-25 07:46:44 51°14.205 2°53.896 12.065303 4.116462 31.588624 -0.882377
2004-02-25 07:46:48 51°14.196 2°53.874 12.093931 4.116778 31.593625 -0.882377
2004-02-25 07:46:54 51°14.185 2°53.84 12.072665 4.116883 31.592233 -0.848668
2004-02-25 07:46:59 51°14.175 2°53.812 12.056576 4.116567 31.59182 -0.882377
2004-02-25 07:47:04 51°14.166 2°53.784 12.101472 4.117094 31.594038 -0.848668
2004-02-25 07:47:08 51°14.157 2°53.762 12.101472 4.117094 31.594038 -0.848668
2004-02-25 07:47:14 51°14.146 2°53.728 12.059939 4.116145 31.587636 -0.882377
2004-02-25 07:47:19 51°14.136 2°53.7 12.113918 4.116567 31.592393 -0.882377
2004-02-25 07:47:24 51°14.126 2°53.672 12.089024 4.116356 31.587721 -0.848668
2004-02-25 07:47:28 51°14.117 2°53.65 12.082936 4.116356 31.590015 -0.882377
2004-02-25 07:47:34 51°14.106 2°53.616 12.09125 4.116989 31.594856 -0.848668
2004-02-25 07:47:38 51°14.098 2°53.594 12.052893 4.116251 31.589112 -0.882377
2004-02-25 07:47:44 51°14.086 2°53.56 12.052893 4.116251 31.589112 -0.882377
2004-02-25 07:47:49 51°14.077 2°53.532 12.06553 4.116884 31.595101 -0.848668
2004-02-25 07:47:54 51°14.067 2°53.504 12.092114 4.116356 31.592309 -0.882377
2004-02-25 07:47:59 51°14.057 2°53.475 12.103789 4.116567 31.592393 -0.848668
2004-02-25 07:48:04 51°14.048 2°53.447 12.063212 4.116778 31.593051 -0.848668
2004-02-25 07:48:08 51°14.039 2°53.424 12.065666 4.116145 31.58821 -0.848668
2004-02-25 07:48:14 51°14.028 2°53.389 12.065666 4.116145 31.58821 -0.848668
2004-02-25 07:48:19 51°14.018 2°53.361 12.065439 4.116673 31.592722 -0.848668
2004-02-25 07:48:24 51°14.01 2°53.332 12.082209 4.116356 31.588294 -0.882377
2004-02-25 07:48:28 51°14 2°53.31 12.099519 4.115935 31.589272 -0.882377
2004-02-25 07:48:34 51°13.991 2°53.275 12.112464 4.116673 31.595016 -0.848668
2004-02-25 07:48:39 51°13.981 2°53.246 12.078346 4.115935 31.588125 -0.848668
2004-02-25 07:48:44 51°13.971 2°53.217 12.078346 4.115935 31.588125 -0.848668
2004-02-25 07:48:49 51°13.963 2°53.188 12.08189 4.116567 31.594687 -0.882377
2004-02-25 07:48:54 51°13.953 2°53.16 12.107468 4.11604 31.590748 -0.848668
2004-02-25 07:48:59 51°13.943 2°53.131 12.096748 4.116462 31.593211 -0.848668
2004-02-25 07:49:04 51°13.934 2°53.102 12.087479 4.116251 31.589112 -0.848668
2004-02-25 07:49:08 51°13.926 2°53.079 12.090751 4.116145 31.58821 -0.848668
2004-02-25 07:49:14 51°13.915 2°53.045 12.090751 4.116145 31.58821 -0.848668
2004-02-25 07:49:18 51°13.908 2°53.022 12.099564 4.116356 31.590015 -0.848668
2004-02-25 07:49:24 51°13.896 2°52.987 12.088206 4.116251 31.589686 -0.882377
2004-02-25 07:49:29 51°13.886 2°52.959 12.107014 4.115935 31.588699 -0.916087
2004-02-25 07:49:34 51°13.877 2°52.929 12.085253 4.116462 31.591491 -0.848668
2004-02-25 07:49:38 51°13.869 2°52.907 12.085253 4.116462 31.591491 -0.848668
2004-02-25 07:49:44 51°13.858 2°52.873 12.098792 4.115935 31.589272 -0.848668
2004-02-25 07:49:48 51°13.85 2°52.85 12.099564 4.116356 31.592882 -0.882377
2004-02-25 07:49:54 51°13.84 2°52.815 12.086343 4.116356 31.591735 -0.848668
2004-02-25 07:49:59 51°13.83 2°52.788 12.106605 4.116146 31.591077 -0.882377
2004-02-25 07:50:04 51°13.821 2°52.759 12.102017 4.116462 31.593211 -0.848668
2004-02-25 07:50:08 51°13.813 2°52.736 12.102017 4.116462 31.593211 -0.848668
2004-02-25 07:50:14 51°13.803 2°52.701 12.08916 4.116462 31.591491 -0.916087
2004-02-25 07:50:18 51°13.796 2°52.678 12.101381 4.115829 31.587796 -0.848668
2004-02-25 07:50:24 51°13.785 2°52.644 12.097702 4.116356 31.591735 -0.848668
2004-02-25 07:50:30 51°13.773 2°52.61 12.104924 4.115829 31.589517 -0.882377
2004-02-25 07:50:34 51°13.766 2°52.588 12.108922 4.116356 31.594029 -0.916087
2004-02-25 07:50:39 51°13.757 2°52.56 12.108922 4.116356 31.594029 -0.916087
2004-02-25 07:50:44 51°13.747 2°52.532 12.099791 4.11604 31.590748 -0.882377
2004-02-25 07:50:48 51°13.74 2°52.509 12.115916 4.115829 31.589517 -0.882377
2004-02-25 07:50:54 51°13.729 2°52.475 12.104697 4.11604 31.590175 -0.882377
2004-02-25 07:50:59 51°13.721 2°52.447 12.106878 4.116145 31.58993 -0.882377
2004-02-25 07:51:04 51°13.711 2°52.419 12.112147 4.115724 31.58804 -0.814958
2004-02-25 07:51:08 51°13.705 2°52.395 12.112147 4.115724 31.58804 -0.814958
2004-02-25 07:51:14 51°13.694 2°52.362 12.115144 4.116146 31.590504 -0.882377
2004-02-25 07:51:19 51°13.684 2°52.333 12.11419 4.115197 31.584675 -0.882377
2004-02-25 07:51:24 51°13.676 2°52.304 12.113736 4.116251 31.59198 -0.882377
2004-02-25 07:51:28 51°13.669 2°52.282 12.108104 4.11604 31.591895 -0.882377
2004-02-25 07:51:34 51°13.657 2°52.249 12.121638 4.115618 31.589432 -0.882377
2004-02-25 07:51:38 51°13.65 2°52.226 12.109694 4.116251 31.59198 -0.848668
2004-02-25 07:51:44 51°13.638 2°52.193 12.109694 4.116251 31.59198 -0.848668
2004-02-25 07:51:48 51°13.631 2°52.17 12.119413 4.115091 31.584346 -0.882377
2004-02-25 07:51:54 51°13.62 2°52.136 12.122229 4.116146 31.591651 -0.882377
2004-02-25 07:51:59 51°13.611 2°52.107 12.11737 4.115829 31.58837 -0.848668
2004-02-25 07:52:04 51°13.601 2°52.079 12.114781 4.115618 31.587138 -0.882377
2004-02-25 07:52:08 51°13.594 2°52.056 12.123637 4.115513 31.586809 -0.882377
2004-02-25 07:52:14 51°13.583 2°52.023 12.123637 4.115513 31.586809 -0.882377
2004-02-25 07:52:19 51°13.573 2°51.994 12.11737 4.115724 31.58804 -0.882377
2004-02-25 07:52:24 51°13.565 2°51.965 12.122456 4.115618 31.585991 -0.882377
2004-02-25 07:52:28 51°13.557 2°51.943 12.117687 4.115724 31.58804 -0.882377
2004-02-25 07:52:34 51°13.546 2°51.909 12.127451 4.115935 31.589846 -0.882377
2004-02-25 07:52:38 51°13.537 2°51.886 12.116234 4.115724 31.587467 -0.882377
2004-02-25 07:52:44 51°13.527 2°51.852 12.116234 4.115724 31.587467 -0.882377
2004-02-25 07:52:48 51°13.518 2°51.83 12.124908 4.11604 31.591895 -0.848668
2004-02-25 07:52:54 51°13.508 2°51.795 12.121366 4.115724 31.588614 -0.882377
2004-02-25 07:52:59 51°13.497 2°51.766 12.129177 4.115302 31.586724 -0.882377
2004-02-25 07:53:04 51°13.489 2°51.737 12.13072 4.115618 31.587711 -0.848668
2004-02-25 07:53:08 51°13.481 2°51.714 12.126134 4.115513 31.586235 -0.848668
2004-02-25 07:53:14 51°13.472 2°51.679 12.126134 4.115513 31.586235 -0.848668
2004-02-25 07:53:19 51°13.461 2°51.651 12.130539 4.115724 31.589761 -0.882377
2004-02-25 07:53:24 51°13.453 2°51.621 12.12895 4.115724 31.58632 -0.848668
2004-02-25 07:53:28 51°13.444 2°51.6 12.12954 4.115302 31.585577 -0.848668
2004-02-25 07:53:34 51°13.433 2°51.564 12.133036 4.116146 31.592224 -0.882377
2004-02-25 07:53:38 51°13.425 2°51.542 12.130266 4.115197 31.582954 -0.848668
2004-02-25 07:53:44 51°13.415 2°51.508 12.130266 4.115197 31.582954 -0.848668
2004-02-25 07:53:49 51°13.406 2°51.479 12.13231 4.115513 31.587382 -0.882377
2004-02-25 07:53:54 51°13.396 2°51.451 12.133399 4.115618 31.588285 -0.882377
2004-02-25 07:53:59 51°13.387 2°51.422 12.13567 4.115302 31.585004 -0.848668
2004-02-25 07:54:04 51°13.377 2°51.395 12.136214 4.115091 31.583772 -0.882377
2004-02-25 07:54:08 51°13.37 2°51.371 12.136578 4.115724 31.588614 -0.882377
2004-02-25 07:54:14 51°13.359 2°51.337 12.136578 4.115724 31.588614 -0.882377
2004-02-25 07:54:19 51°13.349 2°51.308 12.13803 4.115197 31.584101 -0.882377
2004-02-25 07:54:24 51°13.34 2°51.279 12.13912 4.115513 31.585662 -0.848668
2004-02-25 07:54:28 51°13.332 2°51.257 12.139392 4.115407 31.585906 -0.848668
2004-02-25 07:54:34 51°13.321 2°51.222 12.140754 4.115935 31.590419 -0.848668
2004-02-25 07:54:38 51°13.312 2°51.2 12.140754 4.115935 31.590419 -0.848668
2004-02-25 07:54:44 51°13.302 2°51.165 12.142162 4.114986 31.58287 -0.848668
2004-02-25 07:54:49 51°13.292 2°51.137 12.141345 4.115408 31.5882 -0.882377
2004-02-25 07:54:54 51°13.283 2°51.108 12.14257 4.115407 31.587053 -0.848668
2004-02-25 07:54:59 51°13.273 2°51.08 12.14484 4.115513 31.588529 -0.882377
2004-02-25 07:55:04 51°13.264 2°51.051 12.145794 4.115407 31.58648 -0.882377
2004-02-25 07:55:08 51°13.256 2°51.028 12.146338 4.115513 31.588529 -0.848668
2004-02-25 07:55:14 51°13.245 2°50.994 12.146338 4.115513 31.588529 -0.848668
2004-02-25 07:55:18 51°13.238 2°50.971 12.146702 4.115407 31.587053 -0.882377
2004-02-25 07:55:24 51°13.227 2°50.936 12.149561 4.115513 31.588529 -0.848668
2004-02-25 07:55:28 51°13.219 2°50.913 12.14888 4.115407 31.587053 -0.882377
2004-02-25 07:55:34 51°13.208 2°50.877 12.149425 4.115197 31.585248 -0.848668
2004-02-25 07:55:39 51°13.198 2°50.849 12.149607 4.115197 31.586395 -0.848668
2004-02-25 07:55:44 51°13.19 2°50.819 12.149607 4.115197 31.586395 -0.848668
2004-02-25 07:55:48 51°13.182 2°50.796 12.152058 4.115724 31.589761 -0.848668
2004-02-25 07:55:54 51°13.171 2°50.76 12.154191 4.115302 31.586724 -0.882377
2004-02-25 07:55:59 51°13.161 2°50.732 12.151513 4.115302 31.587871 -0.882377
2004-02-25 07:56:04 51°13.153 2°50.702 12.157505 4.115829 31.590664 -0.848668
2004-02-25 07:56:08 51°13.144 2°50.68 12.156733 4.114986 31.58459 -0.916087
2004-02-25 07:56:14 51°13.133 2°50.646 12.156733 4.114986 31.58459 -0.916087
2004-02-25 07:56:19 51°13.123 2°50.618 12.158186 4.115408 31.588774 -0.882377
2004-02-25 07:56:24 51°13.112 2°50.59 12.156552 4.115197 31.586969 -0.882377
2004-02-25 07:56:28 51°13.104 2°50.567 12.156869 4.11488 31.583687 -0.882377
2004-02-25 07:56:34 51°13.092 2°50.533 12.157823 4.114775 31.582785 -0.882377
2004-02-25 07:56:39 51°13.082 2°50.505 12.161 4.115302 31.586724 -0.882377
2004-02-25 07:56:44 51°13.072 2°50.476 12.161 4.115302 31.586724 -0.882377
2004-02-25 07:56:48 51°13.064 2°50.454 12.160954 4.115302 31.586724 -0.882377
2004-02-25 07:56:54 51°13.052 2°50.42 12.162361 4.115513 31.589103 -0.882377
2004-02-25 07:56:59 51°13.042 2°50.391 12.162724 4.115091 31.585493 -0.848668
2004-02-25 07:57:04 51°13.033 2°50.363 12.16522 4.115408 31.5882 -0.848668
2004-02-25 07:57:08 51°13.025 2°50.34 12.166219 4.115408 31.588774 -0.848668
2004-02-25 07:57:14 51°13.014 2°50.306 12.166219 4.115408 31.588774 -0.848668
2004-02-25 07:57:19 51°13.003 2°50.278 12.162906 4.115408 31.588774 -0.848668
2004-02-25 07:57:24 51°12.993 2°50.249 12.166945 4.115197 31.586969 -0.882377
2004-02-25 07:57:28 51°12.985 2°50.227 12.167308 4.114986 31.585163 -0.848668
2004-02-25 07:57:34 51°12.973 2°50.194 12.165946 4.114986 31.58631 -0.848668
2004-02-25 07:57:38 51°12.965 2°50.171 12.170984 4.115197 31.587542 -0.848668
2004-02-25 07:57:44 51°12.953 2°50.137 12.170984 4.115197 31.587542 -0.848668
2004-02-25 07:57:49 51°12.942 2°50.109 12.169486 4.115302 31.589018 -0.848668
2004-02-25 07:57:54 51°12.933 2°50.08 12.174024 4.115197 31.585822 -0.848668
2004-02-25 07:57:59 51°12.921 2°50.052 12.174841 4.114986 31.58631 -0.848668
2004-02-25 07:58:04 51°12.912 2°50.024 12.161862 4.115408 31.591642 -0.882377
2004-02-25 07:58:09 51°12.901 2°49.996 12.161862 4.115408 31.591642 -0.882377
2004-02-25 07:58:14 51°12.892 2°49.967 12.181239 4.114986 31.586884 -0.882377
2004-02-25 07:58:19 51°12.882 2°49.939 12.170848 4.115091 31.589508 -0.882377
2004-02-25 07:58:24 51°12.872 2°49.91 12.175431 4.114986 31.587458 -0.848668
2004-02-25 07:58:28 51°12.864 2°49.888 12.175476 4.115302 31.590166 -0.848668
2004-02-25 07:58:34 51°12.852 2°49.854 12.179106 4.115091 31.585493 -0.882377
2004-02-25 07:58:39 51°12.842 2°49.826 12.179106 4.115091 31.585493 -0.882377
2004-02-25 07:58:44 51°12.833 2°49.797 12.177609 4.11488 31.583687 -0.882377
2004-02-25 07:58:48 51°12.825 2°49.775 12.176565 4.115091 31.585493 -0.848668
2004-02-25 07:58:54 51°12.813 2°49.741 12.17534 4.115091 31.585493 -0.882377
2004-02-25 07:58:59 51°12.804 2°49.712 12.184415 4.115091 31.584919 -0.882377
2004-02-25 07:59:04 51°12.794 2°49.685 12.176883 4.114986 31.58631 -0.882377
2004-02-25 07:59:08 51°12.786 2°49.662 12.185912 4.115302 31.588445 -0.848668
2004-02-25 07:59:14 51°12.774 2°49.627 12.185912 4.115302 31.588445 -0.848668
2004-02-25 07:59:19 51°12.765 2°49.599 12.182101 4.114669 31.583603 -0.848668
2004-02-25 07:59:24 51°12.754 2°49.572 12.179424 4.115091 31.587787 -0.882377
2004-02-25 07:59:29 51°12.746 2°49.543 12.192172 4.115513 31.588529 -0.882377
2004-02-25 07:59:34 51°12.735 2°49.516 12.183825 4.114669 31.583029 -0.882377
2004-02-25 07:59:39 51°12.725 2°49.487 12.189133 4.114986 31.585163 -0.882377
2004-02-25 07:59:44 51°12.716 2°49.458 12.189133 4.114986 31.585163 -0.882377
2004-02-25 07:59:49 51°12.705 2°49.431 12.188679 4.115302 31.587298 -0.882377
2004-02-25 07:59:54 51°12.696 2°49.402 12.19063 4.114775 31.582785 -0.848668
2004-02-25 07:59:59 51°12.685 2°49.374 12.186229 4.114986 31.58631 -0.882377
2004-02-25 08:00:04 51°12.676 2°49.345 12.192218 4.115197 31.586395 -0.882377
2004-02-25 08:00:08 51°12.667 2°49.323 12.192535 4.114564 31.581553 -0.848668
2004-02-25 08:00:14 51°12.656 2°49.289 12.192535 4.114564 31.581553 -0.848668
2004-02-25 08:00:18 51°12.648 2°49.267 12.190993 4.11488 31.585408 -0.848668
2004-02-25 08:00:24 51°12.636 2°49.233 12.191628 4.114986 31.585737 -0.882377
2004-02-25 08:00:29 51°12.626 2°49.204 12.19376 4.114564 31.582126 -0.882377
2004-02-25 08:00:34 51°12.616 2°49.176 12.193533 4.114986 31.585737 -0.882377
2004-02-25 08:00:39 51°12.606 2°49.147 12.199203 4.115197 31.586969 -0.882377
2004-02-25 08:00:44 51°12.596 2°49.119 12.199203 4.115197 31.586969 -0.882377
2004-02-25 08:00:50 51°12.585 2°49.084 12.193896 4.114986 31.586884 -0.882377
2004-02-25 08:00:54 51°12.577 2°49.062 12.193624 4.11488 31.584834 -0.882377
2004-02-25 08:00:59 51°12.567 2°49.033 12.199022 4.11488 31.585981 -0.882377
2004-02-25 08:01:04 51°12.557 2°49.004 12.202741 4.114775 31.585079 -0.882377
2004-02-25 08:01:08 51°12.55 2°48.981 12.202741 4.114775 31.585079 -0.882377
2004-02-25 08:01:14 51°12.538 2°48.947 12.195983 4.114775 31.584505 -0.848668
2004-02-25 08:01:19 51°12.529 2°48.918 12.205055 4.114986 31.58631 -0.882377
2004-02-25 08:01:24 51°12.518 2°48.891 12.20061 4.11488 31.586555 -0.848668
2004-02-25 08:01:30 51°12.506 2°48.856 12.204465 4.114459 31.582371 -0.848668
2004-02-25 08:01:34 51°12.498 2°48.834 12.198115 4.114669 31.585323 -0.882377
2004-02-25 08:01:39 51°12.489 2°48.805 12.198115 4.114669 31.585323 -0.882377
2004-02-25 08:01:44 51°12.479 2°48.777 12.208955 4.115197 31.588116 -0.882377
2004-02-25 08:01:48 51°12.47 2°48.755 12.20129 4.114037 31.580481 -0.882377
2004-02-25 08:01:54 51°12.459 2°48.722 12.207867 4.115197 31.588116 -0.848668
2004-02-25 08:01:59 51°12.448 2°48.693 12.210905 4.114459 31.583518 -0.916087
2004-02-25 08:02:04 51°12.439 2°48.665 12.212719 4.11488 31.585981 -0.848668
2004-02-25 08:02:10 51°12.426 2°48.632 12.206415 4.11467 31.585897 -0.882377
2004-02-25 08:02:14 51°12.419 2°48.608 12.206415 4.11467 31.585897 -0.882377
2004-02-25 08:02:19 51°12.409 2°48.581 12.20578 4.114986 31.587458 -0.882377
2004-02-25 08:02:24 51°12.4 2°48.552 12.211087 4.114669 31.583603 -0.882377
2004-02-25 08:02:28 51°12.391 2°48.531 12.211994 4.114353 31.583762 -0.848668
2004-02-25 08:02:34 51°12.38 2°48.497 12.211631 4.115197 31.589837 -0.882377
2004-02-25 08:02:39 51°12.368 2°48.47 12.217209 4.114353 31.583189 -0.882377
2004-02-25 08:02:44 51°12.36 2°48.44 12.217209 4.114353 31.583189 -0.882377
2004-02-25 08:02:48 51°12.351 2°48.419 12.204465 4.114775 31.586799 -0.848668
2004-02-25 08:02:54 51°12.339 2°48.384 12.21739 4.114353 31.583189 -0.882377
2004-02-25 08:02:59 51°12.33 2°48.357 12.209545 4.114775 31.587373 -0.882377
2004-02-25 08:03:04 51°12.32 2°48.328 12.218796 4.11467 31.585897 -0.882377
2004-02-25 08:03:08 51°12.312 2°48.306 12.212946 4.114248 31.581139 -0.848668
2004-02-25 08:03:14 51°12.301 2°48.271 12.212946 4.114248 31.581139 -0.848668
2004-02-25 08:03:19 51°12.291 2°48.244 12.219159 4.115091 31.58836 -0.882377
2004-02-25 08:03:24 51°12.282 2°48.215 12.219975 4.114564 31.5827 -0.882377
2004-02-25 08:03:28 51°12.273 2°48.193 12.218841 4.114564 31.583847 -0.882377
2004-02-25 08:03:34 51°12.262 2°48.159 12.220927 4.114353 31.582042 -0.882377
2004-02-25 08:03:38 51°12.254 2°48.136 12.218342 4.11488 31.586555 -0.882377
2004-02-25 08:03:44 51°12.242 2°48.103 12.218342 4.11488 31.586555 -0.882377
2004-02-25 08:03:49 51°12.233 2°48.074 12.218161 4.114459 31.584091 -0.848668
2004-02-25 08:03:54 51°12.223 2°48.046 12.219385 4.114775 31.586799 -0.882377
2004-02-25 08:03:59 51°12.213 2°48.018 12.226187 4.115197 31.589263 -0.882377
2004-02-25 08:04:04 51°12.204 2°47.99 12.22596 4.114564 31.583273 -0.882377
2004-02-25 08:04:10 51°12.192 2°47.956 12.22596 4.114564 31.583273 -0.882377
2004-02-25 08:04:14 51°12.184 2°47.934 12.221063 4.114459 31.584091 -0.848668
2004-02-25 08:04:19 51°12.175 2°47.906 12.229678 4.114564 31.583847 -0.882377
2004-02-25 08:04:24 51°12.165 2°47.878 12.233668 4.114459 31.583518 -0.882377
2004-02-25 08:04:29 51°12.155 2°47.85 12.230812 4.11467 31.58647 -0.848668
2004-02-25 08:04:34 51°12.145 2°47.821 12.226867 4.114669 31.585323 -0.882377
2004-02-25 08:04:38 51°12.138 2°47.799 12.226867 4.114669 31.585323 -0.882377
2004-02-25 08:04:44 51°12.125 2°47.766 12.229134 4.114248 31.582859 -0.848668
2004-02-25 08:04:50 51°12.114 2°47.731 12.235617 4.11467 31.587044 -0.882377
2004-02-25 08:04:54 51°12.105 2°47.71 12.226958 4.11467 31.587044 -0.882377
2004-02-25 08:04:59 51°12.097 2°47.681 12.234574 4.114353 31.581468 -0.882377
2004-02-25 08:05:04 51°12.086 2°47.654 12.236116 4.114353 31.584336 -0.882377
2004-02-25 08:05:09 51°12.078 2°47.624 12.236116 4.114353 31.584336 -0.882377
2004-02-25 08:05:14 51°12.067 2°47.598 12.223874 4.114775 31.587373 -0.882377
2004-02-25 08:05:19 51°12.058 2°47.569 12.242417 4.114248 31.582859 -0.882377
2004-02-25 08:05:24 51°12.047 2°47.541 12.237703 4.114248 31.58458 -0.882377
2004-02-25 08:05:30 51°12.036 2°47.507 12.234846 4.114775 31.587373 -0.882377
2004-02-25 08:05:34 51°12.028 2°47.484 12.240876 4.114564 31.585568 -0.848668
2004-02-25 08:05:39 51°12.019 2°47.456 12.240876 4.114564 31.585568 -0.848668
2004-02-25 08:05:44 51°12.01 2°47.428 12.242916 4.11467 31.587044 -0.882377
2004-02-25 08:05:50 51°11.998 2°47.394 12.245545 4.11467 31.585897 -0.916087
2004-02-25 08:05:54 51°11.99 2°47.372 12.2353 4.114248 31.582859 -0.882377
2004-02-25 08:05:59 51°11.98 2°47.343 12.249579 4.114564 31.58442 -0.848668
2004-02-25 08:06:04 51°11.971 2°47.315 12.247267 4.114353 31.583189 -0.848668
2004-02-25 08:06:10 51°11.96 2°47.281 12.238337 4.114564 31.584994 -0.882377
2004-02-25 08:06:14 51°11.951 2°47.26 12.238337 4.114564 31.584994 -0.882377
2004-02-25 08:06:19 51°11.941 2°47.232 12.246814 4.114142 31.583104 -0.882377
2004-02-25 08:06:24 51°11.932 2°47.203 12.251528 4.114564 31.585568 -0.882377
2004-02-25 08:06:29 51°11.921 2°47.176 12.239743 4.114353 31.584909 -0.882377
2004-02-25 08:06:34 51°11.912 2°47.147 12.24559 4.11467 31.58647 -0.848668
2004-02-25 08:06:39 51°11.902 2°47.118 12.247358 4.114142 31.581383 -0.882377
2004-02-25 08:06:44 51°11.893 2°47.089 12.247358 4.114142 31.581383 -0.882377
2004-02-25 08:06:48 51°11.888 2°47.065 12.257918 4.114353 31.584336 -0.882377
2004-02-25 08:06:54 51°11.878 2°47.03 12.242145 4.114775 31.587947 -0.882377
2004-02-25 08:06:59 51°11.871 2°46.999 12.259414 4.114564 31.586141 -0.882377
2004-02-25 08:07:04 51°11.863 2°46.969 12.246406 4.114248 31.585154 -0.882377
2004-02-25 08:07:09 51°11.858 2°46.938 12.245454 4.114775 31.587373 -0.882377
2004-02-25 08:07:14 51°11.85 2°46.909 12.245454 4.114775 31.587373 -0.882377
2004-02-25 08:07:19 51°11.844 2°46.878 12.25606 4.114248 31.583433 -0.882377
2004-02-25 08:07:24 51°11.837 2°46.848 12.254156 4.114459 31.585812 -0.882377
2004-02-25 08:07:28 51°11.832 2°46.823 12.25538 4.114564 31.586141 -0.848668
2004-02-25 08:07:34 51°11.824 2°46.787 12.249805 4.114248 31.584007 -0.848668
2004-02-25 08:07:39 51°11.817 2°46.756 12.255607 4.114353 31.584336 -0.882377
2004-02-25 08:07:44 51°11.811 2°46.725 12.255607 4.114353 31.584336 -0.882377
2004-02-25 08:07:48 51°11.805 2°46.702 12.260093 4.114775 31.587373 -0.882377
2004-02-25 08:07:54 51°11.797 2°46.665 12.262631 4.114459 31.585238 -0.882377
2004-02-25 08:07:59 51°11.79 2°46.635 12.26458 4.114459 31.586386 -0.882377
2004-02-25 08:08:04 51°11.784 2°46.604 12.252797 4.114248 31.584007 -0.848668
2004-02-25 08:08:08 51°11.779 2°46.58 12.257918 4.114037 31.582201 -0.882377
2004-02-25 08:08:14 51°11.772 2°46.543 12.257918 4.114037 31.582201 -0.882377
2004-02-25 08:08:19 51°11.765 2°46.512 12.260819 4.114353 31.585483 -0.848668
2004-02-25 08:08:24 51°11.758 2°46.482 12.256151 4.114248 31.58458 -0.882377
2004-02-25 08:08:30 51°11.751 2°46.445 12.266574 4.114248 31.583433 -0.848668
2004-02-25 08:08:34 51°11.745 2°46.421 12.259867 4.114037 31.582775 -0.882377
2004-02-25 08:08:38 51°11.74 2°46.396 12.257601 4.114353 31.584909 -0.882377
2004-02-25 08:08:44 51°11.732 2°46.36 12.257601 4.114353 31.584909 -0.882377
2004-02-25 08:08:49 51°11.726 2°46.329 12.270108 4.114353 31.585483 -0.882377
2004-02-25 08:08:54 51°11.718 2°46.299 12.262858 4.11467 31.588191 -0.882377
2004-02-25 08:08:59 51°11.712 2°46.267 12.270697 4.114142 31.583677 -0.882377
2004-02-25 08:09:04 51°11.706 2°46.237 12.269383 4.114353 31.585483 -0.848668
2004-02-25 08:09:09 51°11.699 2°46.206 12.269383 4.114353 31.585483 -0.848668
2004-02-25 08:09:14 51°11.693 2°46.175 12.266347 4.114037 31.582775 -0.848668
2004-02-25 08:09:18 51°11.687 2°46.151 12.270108 4.11467 31.587618 -0.882377
2004-02-25 08:09:24 51°11.679 2°46.115 12.274911 4.114564 31.587288 -0.882377
2004-02-25 08:09:29 51°11.673 2°46.083 12.262948 4.114248 31.583433 -0.882377
2004-02-25 08:09:34 51°11.666 2°46.053 12.278082 4.114248 31.582286 -0.882377
2004-02-25 08:09:39 51°11.659 2°46.023 12.263356 4.113826 31.582116 -0.916087
2004-02-25 08:09:44 51°11.654 2°45.991 12.263356 4.113826 31.582116 -0.916087
2004-02-25 08:09:49 51°11.646 2°45.961 12.262223 4.114353 31.586057 -0.882377
2004-02-25 08:09:54 51°11.64 2°45.931 12.273869 4.113931 31.581872 -0.848668
2004-02-25 08:09:58 51°11.634 2°45.907 12.26245 4.113932 31.58474 -0.882377
2004-02-25 08:10:04 51°11.627 2°45.87 12.273823 4.114353 31.58663 -0.848668
2004-02-25 08:10:10 51°11.618 2°45.834 12.274412 4.113721 31.582934 -0.848668
2004-02-25 08:10:14 51°11.613 2°45.809 12.274412 4.113721 31.582934 -0.848668
2004-02-25 08:10:18 51°11.607 2°45.784 12.271286 4.114248 31.586875 -0.848668
2004-02-25 08:10:24 51°11.6 2°45.747 12.279305 4.114142 31.584251 -0.848668
2004-02-25 08:10:29 51°11.593 2°45.717 12.271286 4.114353 31.58663 -0.882377
2004-02-25 08:10:34 51°11.586 2°45.686 12.273597 4.113721 31.58064 -0.882377
2004-02-25 08:10:38 51°11.581 2°45.662 12.271649 4.113931 31.582446 -0.882377
2004-02-25 08:10:44 51°11.573 2°45.625 12.271649 4.113931 31.582446 -0.882377
2004-02-25 08:10:48 51°11.567 2°45.601 12.276859 4.114142 31.584251 -0.882377
2004-02-25 08:10:54 51°11.559 2°45.564 12.278581 4.114142 31.584251 -0.882377
2004-02-25 08:10:59 51°11.553 2°45.534 12.27781 4.114037 31.582201 -0.882377
2004-02-25 08:11:04 51°11.546 2°45.503 12.286056 4.114248 31.585154 -0.848668
2004-02-25 08:11:10 51°11.538 2°45.467 12.281072 4.114459 31.586386 -0.882377
2004-02-25 08:11:14 51°11.533 2°45.442 12.281072 4.114459 31.586386 -0.882377
2004-02-25 08:11:19 51°11.526 2°45.412 12.283745 4.113931 31.581872 -0.882377
2004-02-25 08:11:24 51°11.52 2°45.382 12.282522 4.114142 31.583677 -0.848668
2004-02-25 08:11:30 51°11.512 2°45.345 12.289227 4.113931 31.583019 -0.882377
2004-02-25 08:11:34 51°11.506 2°45.32 12.283745 4.114248 31.585154 -0.882377
2004-02-25 08:11:39 51°11.5 2°45.29 12.289272 4.114248 31.583433 -0.882377
2004-02-25 08:11:44 51°11.493 2°45.26 12.289272 4.114248 31.583433 -0.882377
2004-02-25 08:11:50 51°11.486 2°45.223 12.293801 4.114037 31.584496 -0.882377
2004-02-25 08:11:54 51°11.48 2°45.199 12.292171 4.114248 31.585727 -0.882377
2004-02-25 08:11:59 51°11.473 2°45.168 12.288819 4.114248 31.585154 -0.882377
2004-02-25 08:12:04 51°11.467 2°45.137 12.297787 4.113931 31.583019 -0.882377
2004-02-25 08:12:08 51°11.462 2°45.113 12.292669 4.114353 31.586057 -0.882377
2004-02-25 08:12:14 51°11.454 2°45.077 12.292669 4.114353 31.586057 -0.882377
2004-02-25 08:12:19 51°11.447 2°45.046 12.293077 4.114248 31.585727 -0.882377
2004-02-25 08:12:24 51°11.441 2°45.015 12.290268 4.114037 31.583348 -0.882377
2004-02-25 08:12:30 51°11.433 2°44.979 12.294481 4.113931 31.583019 -0.882377
2004-02-25 08:12:34 51°11.427 2°44.955 12.29362 4.114142 31.584251 -0.848668
2004-02-25 08:12:39 51°11.421 2°44.925 12.29362 4.114142 31.584251 -0.848668
2004-02-25 08:12:44 51°11.414 2°44.894 12.291401 4.113721 31.581214 -0.882377
2004-02-25 08:12:49 51°11.408 2°44.863 12.296293 4.113932 31.583593 -0.848668
2004-02-25 08:12:54 51°11.4 2°44.833 12.293666 4.114248 31.585727 -0.848668
2004-02-25 08:12:58 51°11.395 2°44.809 12.300414 4.113931 31.583019 -0.882377
2004-02-25 08:13:04 51°11.387 2°44.773 12.286191 4.113932 31.583593 -0.882377
2004-02-25 08:13:08 51°11.382 2°44.749 12.301954 4.114037 31.583348 -0.882377
2004-02-25 08:13:14 51°11.373 2°44.712 12.301954 4.114037 31.583348 -0.882377
2004-02-25 08:13:19 51°11.367 2°44.681 12.305894 4.113826 31.58269 -0.882377
2004-02-25 08:13:24 51°11.361 2°44.651 12.298648 4.114142 31.584825 -0.916087
2004-02-25 08:13:30 51°11.353 2°44.614 12.302724 4.114142 31.585398 -0.882377
2004-02-25 08:13:34 51°11.347 2°44.59 12.304807 4.113932 31.584166 -0.848668
2004-02-25 08:13:39 51°11.341 2°44.559 12.301184 4.114248 31.586301 -0.882377
2004-02-25 08:13:44 51°11.335 2°44.528 12.301184 4.114248 31.586301 -0.882377
2004-02-25 08:13:50 51°11.326 2°44.493 12.296655 4.113932 31.583593 -0.882377
2004-02-25 08:13:54 51°11.322 2°44.468 12.31083 4.114353 31.587204 -0.882377
2004-02-25 08:13:59 51°11.316 2°44.438 12.305985 4.114353 31.58663 -0.848668
2004-02-25 08:14:04 51°11.309 2°44.408 12.301184 4.113615 31.580884 -0.882377
2004-02-25 08:14:08 51°11.304 2°44.383 12.308294 4.113932 31.583593 -0.848668
2004-02-25 08:14:14 51°11.296 2°44.346 12.308294 4.113932 31.583593 -0.848668
2004-02-25 08:14:18 51°11.291 2°44.322 12.311917 4.114248 31.585727 -0.848668
2004-02-25 08:14:24 51°11.283 2°44.285 12.302226 4.113721 31.582361 -0.882377
2004-02-25 08:14:28 51°11.278 2°44.261 12.310694 4.114142 31.585398 -0.882377
2004-02-25 08:14:34 51°11.269 2°44.225 12.306256 4.113721 31.582934 -0.882377
2004-02-25 08:14:39 51°11.263 2°44.194 12.305441 4.114248 31.585727 -0.882377
2004-02-25 08:14:44 51°11.256 2°44.164 12.305441 4.114248 31.585727 -0.882377
2004-02-25 08:14:48 51°11.252 2°44.139 12.314045 4.113615 31.581458 -0.882377
2004-02-25 08:14:54 51°11.243 2°44.103 12.302226 4.113721 31.583508 -0.848668
2004-02-25 08:14:59 51°11.237 2°44.072 12.311283 4.114142 31.584251 -0.848668
2004-02-25 08:15:04 51°11.23 2°44.041 12.307207 4.113404 31.5808 -0.882377
2004-02-25 08:15:10 51°11.223 2°44.004 12.315313 4.114248 31.586301 -0.848668
2004-02-25 08:15:14 51°11.218 2°43.979 12.315313 4.114248 31.586301 -0.848668
2004-02-25 08:15:19 51°11.211 2°43.95 12.314543 4.113932 31.583593 -0.882377
2004-02-25 08:15:24 51°11.204 2°43.92 12.308475 4.113932 31.583593 -0.882377
2004-02-25 08:15:28 51°11.199 2°43.896 12.322286 4.113931 31.583019 -0.848668
2004-02-25 08:15:34 51°11.191 2°43.859 12.311872 4.113826 31.583837 -0.882377
2004-02-25 08:15:39 51°11.184 2°43.829 12.314317 4.113932 31.583593 -0.848668
2004-02-25 08:15:44 51°11.177 2°43.799 12.314317 4.113932 31.583593 -0.848668
2004-02-25 08:15:48 51°11.172 2°43.774 12.320475 4.113932 31.585314 -0.882377
2004-02-25 08:15:54 51°11.164 2°43.737 12.310196 4.11351 31.581702 -0.916087
2004-02-25 08:15:58 51°11.159 2°43.713 12.316128 4.114248 31.586875 -0.882377
2004-02-25 08:16:04 51°11.151 2°43.677 12.323825 4.113615 31.582032 -0.882377
2004-02-25 08:16:08 51°11.145 2°43.653 12.316128 4.113721 31.583508 -0.848668
2004-02-25 08:16:14 51°11.138 2°43.617 12.316128 4.113721 31.583508 -0.848668
2004-02-25 08:16:19 51°11.131 2°43.587 12.318981 4.114037 31.586217 -0.882377
2004-02-25 08:16:24 51°11.125 2°43.557 12.32043 4.114037 31.584496 -0.848668
2004-02-25 08:16:30 51°11.117 2°43.521 12.321154 4.113932 31.583593 -0.848668
2004-02-25 08:16:34 51°11.111 2°43.496 12.326678 4.113826 31.584985 -0.882377
2004-02-25 08:16:38 51°11.106 2°43.471 12.322512 4.113932 31.585314 -0.882377
2004-02-25 08:16:44 51°11.098 2°43.435 12.322512 4.113932 31.585314 -0.882377
2004-02-25 08:16:48 51°11.092 2°43.412 12.325048 4.113932 31.58474 -0.848668
2004-02-25 08:16:54 51°11.084 2°43.376 12.315675 4.113615 31.582605 -0.882377
2004-02-25 08:16:58 51°11.079 2°43.351 12.32953 4.114142 31.587119 -0.848668
2004-02-25 08:17:04 51°11.071 2°43.314 12.324459 4.11351 31.581129 -0.882377
2004-02-25 08:17:09 51°11.064 2°43.284 12.327673 4.114037 31.584496 -0.882377
2004-02-25 08:17:14 51°11.058 2°43.255 12.327673 4.114037 31.584496 -0.882377
2004-02-25 08:17:19 51°11.051 2°43.224 12.331929 4.113615 31.583753 -0.882377
2004-02-25 08:17:24 51°11.045 2°43.194 12.328081 4.114248 31.586301 -0.848668
2004-02-25 08:17:30 51°11.037 2°43.157 12.335822 4.113299 31.579897 -0.882377
2004-02-25 08:17:34 51°11.032 2°43.133 12.317124 4.113932 31.586461 -0.882377
2004-02-25 08:17:38 51°11.026 2°43.108 12.338719 4.113826 31.583837 -0.882377
2004-02-25 08:17:44 51°11.019 2°43.072 12.338719 4.113826 31.583837 -0.882377
2004-02-25 08:17:49 51°11.013 2°43.042 12.327538 4.113721 31.583508 -0.882377
2004-02-25 08:17:54 51°11.006 2°43.012 12.340032 4.114142 31.586546 -0.848668
2004-02-25 08:17:59 51°11 2°42.982 12.325138 4.113088 31.576944 -0.882377
2004-02-25 08:18:04 51°10.994 2°42.951 12.335007 4.113721 31.582934 -0.882377
2004-02-25 08:18:10 51°10.986 2°42.915 12.334781 4.11351 31.579982 -0.882377
2004-02-25 08:18:14 51°10.981 2°42.891 12.334781 4.11351 31.579982 -0.882377
2004-02-25 08:18:19 51°10.975 2°42.86 12.329847 4.113615 31.583179 -0.882377
2004-02-25 08:18:24 51°10.968 2°42.83 12.326632 4.113932 31.58474 -0.848668
2004-02-25 08:18:28 51°10.964 2°42.805 12.345508 4.11351 31.580555 -0.848668
2004-02-25 08:18:34 51°10.956 2°42.769 12.330254 4.113721 31.584082 -0.848668
2004-02-25 08:18:39 51°10.95 2°42.739 12.341752 4.113932 31.58474 -0.882377
2004-02-25 08:18:44 51°10.942 2°42.709 12.341752 4.113932 31.58474 -0.882377
2004-02-25 08:18:50 51°10.935 2°42.672 12.34406 4.113721 31.582934 -0.882377
2004-02-25 08:18:54 51°10.93 2°42.647 12.343245 4.113826 31.584985 -0.882377
2004-02-25 08:18:59 51°10.924 2°42.617 12.337904 4.113826 31.584411 -0.882377
2004-02-25 08:19:04 51°10.917 2°42.587 12.341887 4.113615 31.583179 -0.882377
2004-02-25 08:19:08 51°10.912 2°42.562 12.336094 4.11351 31.581129 -0.882377
2004-02-25 08:19:14 51°10.904 2°42.526 12.336094 4.11351 31.581129 -0.882377
2004-02-25 08:19:19 51°10.898 2°42.495 12.349808 4.113404 31.580226 -0.848668
2004-02-25 08:19:24 51°10.892 2°42.464 12.339941 4.113826 31.583837 -0.848668
2004-02-25 08:19:30 51°10.884 2°42.427 12.344015 4.113826 31.584411 -0.848668
2004-02-25 08:19:34 51°10.88 2°42.402 12.356913 4.113932 31.583593 -0.848668
2004-02-25 08:19:39 51°10.874 2°42.372 12.356913 4.113932 31.583593 -0.848668
2004-02-25 08:19:44 51°10.869 2°42.34 12.344286 4.113193 31.580141 -0.848668
2004-02-25 08:19:48 51°10.865 2°42.316 12.343155 4.11351 31.582276 -0.882377
2004-02-25 08:19:54 51°10.858 2°42.279 12.341797 4.113299 31.581044 -0.848668
2004-02-25 08:19:59 51°10.853 2°42.248 12.350079 4.113721 31.584082 -0.848668
2004-02-25 08:20:04 51°10.848 2°42.217 12.354288 4.114142 31.586546 -0.882377
2004-02-25 08:20:10 51°10.841 2°42.18 12.354876 4.11351 31.582276 -0.882377
2004-02-25 08:20:14 51°10.838 2°42.155 12.354876 4.11351 31.582276 -0.882377
2004-02-25 08:20:19 51°10.832 2°42.123 12.354967 4.113721 31.584082 -0.882377
2004-02-25 08:20:24 51°10.827 2°42.092 12.351346 4.113299 31.58047 -0.848668
2004-02-25 08:20:28 51°10.823 2°42.067 12.356822 4.11351 31.581702 -0.916087
2004-02-25 08:20:34 51°10.817 2°42.029 12.354741 4.113615 31.584326 -0.848668
2004-02-25 08:20:39 51°10.811 2°41.998 12.352614 4.11351 31.583423 -0.882377
2004-02-25 08:20:44 51°10.806 2°41.967 12.352614 4.11351 31.583423 -0.882377
2004-02-25 08:20:50 51°10.8 2°41.931 12.35017 4.113615 31.583179 -0.848668
2004-02-25 08:20:54 51°10.796 2°41.906 12.355827 4.113615 31.583179 -0.882377
2004-02-25 08:20:59 51°10.791 2°41.875 12.353157 4.113721 31.584655 -0.882377
2004-02-25 08:21:04 51°10.785 2°41.844 12.366505 4.113404 31.581947 -0.916087
2004-02-25 08:21:10 51°10.779 2°41.807 12.366551 4.11351 31.58285 -0.882377
2004-02-25 08:21:14 51°10.774 2°41.783 12.366551 4.11351 31.58285 -0.882377
2004-02-25 08:21:19 51°10.769 2°41.752 12.359447 4.113299 31.581044 -0.882377
2004-02-25 08:21:24 51°10.763 2°41.72 12.354831 4.113299 31.581044 -0.916087
2004-02-25 08:21:29 51°10.758 2°41.689 12.367772 4.11351 31.58285 -0.882377
2004-02-25 08:21:34 51°10.753 2°41.658 12.358632 4.113299 31.581044 -0.848668
2004-02-25 08:21:40 51°10.747 2°41.622 12.36836 4.113721 31.583508 -0.882377
2004-02-25 08:21:44 51°10.743 2°41.597 12.36836 4.113721 31.583508 -0.882377
2004-02-25 08:21:50 51°10.736 2°41.56 12.368315 4.11351 31.583423 -0.916087
2004-02-25 08:21:54 51°10.732 2°41.535 12.3618 4.113404 31.581373 -0.848668
2004-02-25 08:21:58 51°10.728 2°41.51 12.367456 4.113404 31.581947 -0.882377
2004-02-25 08:22:04 51°10.722 2°41.473 12.358859 4.11351 31.58285 -0.882377
2004-02-25 08:22:09 51°10.717 2°41.442 12.372523 4.113615 31.583753 -0.848668
2004-02-25 08:22:14 51°10.712 2°41.411 12.372523 4.113615 31.583753 -0.848668
2004-02-25 08:22:19 51°10.706 2°41.38 12.367591 4.11351 31.583423 -0.882377
2004-02-25 08:22:24 51°10.701 2°41.349 12.36284 4.113299 31.58047 -0.848668
2004-02-25 08:22:28 51°10.696 2°41.324 12.375192 4.113193 31.580715 -0.882377
2004-02-25 08:22:34 51°10.691 2°41.286 12.368813 4.11351 31.582276 -0.848668
2004-02-25 08:22:39 51°10.685 2°41.256 12.37017 4.113299 31.581618 -0.882377
2004-02-25 08:22:44 51°10.68 2°41.225 12.37017 4.113299 31.581618 -0.882377
2004-02-25 08:22:50 51°10.674 2°41.188 12.373744 4.113721 31.585803 -0.848668
2004-02-25 08:22:54 51°10.67 2°41.163 12.367727 4.11351 31.584571 -0.882377
2004-02-25 08:22:59 51°10.664 2°41.132 12.376504 4.113404 31.582521 -0.882377
2004-02-25 08:23:04 51°10.659 2°41.1 12.380711 4.11351 31.58285 -0.848668
2004-02-25 08:23:10 51°10.653 2°41.063 12.37949 4.113721 31.585229 -0.882377
2004-02-25 08:23:14 51°10.649 2°41.038 12.37949 4.113721 31.585229 -0.882377
2004-02-25 08:23:19 51°10.644 2°41.007 12.374016 4.113193 31.579568 -0.916087
2004-02-25 08:23:24 51°10.639 2°40.975 12.376368 4.113299 31.581618 -0.882377
2004-02-25 08:23:28 51°10.635 2°40.951 12.37112 4.113615 31.5849 -0.882377
2004-02-25 08:23:34 51°10.629 2°40.913 12.383244 4.113721 31.585803 -0.882377
2004-02-25 08:23:39 51°10.624 2°40.882 12.385189 4.113721 31.585229 -0.848668
2004-02-25 08:23:44 51°10.618 2°40.851 12.385189 4.113721 31.585229 -0.848668
2004-02-25 08:23:48 51°10.614 2°40.826 12.381073 4.113299 31.583339 -0.882377
2004-02-25 08:23:54 51°10.608 2°40.789 12.371256 4.113299 31.583339 -0.916087
2004-02-25 08:23:59 51°10.603 2°40.758 12.38528 4.113404 31.582521 -0.848668
2004-02-25 08:24:04 51°10.597 2°40.727 12.387134 4.113404 31.582521 -0.882377
2004-02-25 08:24:08 51°10.593 2°40.702 12.379128 4.113193 31.580715 -0.882377
2004-02-25 08:24:14 51°10.586 2°40.665 12.379128 4.113193 31.580715 -0.882377
2004-02-25 08:24:19 51°10.581 2°40.634 12.385053 4.11351 31.583997 -0.882377
2004-02-25 08:24:24 51°10.575 2°40.602 12.379761 4.113088 31.580959 -0.848668
2004-02-25 08:24:30 51°10.569 2°40.565 12.374242 4.113299 31.582765 -0.882377
2004-02-25 08:24:34 51°10.564 2°40.541 12.384692 4.113299 31.583339 -0.848668
2004-02-25 08:24:39 51°10.559 2°40.509 12.380394 4.113404 31.583094 -0.882377
2004-02-25 08:24:44 51°10.554 2°40.479 12.380394 4.113404 31.583094 -0.882377
2004-02-25 08:24:48 51°10.55 2°40.454 12.386365 4.113299 31.582191 -0.882377
2004-02-25 08:24:54 51°10.543 2°40.416 12.381344 4.113088 31.581533 -0.882377
2004-02-25 08:24:59 51°10.538 2°40.385 12.389984 4.113404 31.582521 -0.848668
2004-02-25 08:25:04 51°10.533 2°40.354 12.388672 4.113404 31.583668 -0.848668
2004-02-25 08:25:10 51°10.526 2°40.317 12.395999 4.113088 31.580959 -0.848668
2004-02-25 08:25:14 51°10.523 2°40.292 12.395999 4.113088 31.580959 -0.848668
2004-02-25 08:25:19 51°10.517 2°40.261 12.386772 4.113404 31.583668 -0.848668
2004-02-25 08:25:24 51°10.512 2°40.229 12.395366 4.11351 31.584571 -0.848668
2004-02-25 08:25:28 51°10.507 2°40.205 12.383018 4.113194 31.582436 -0.848668
2004-02-25 08:25:34 51°10.501 2°40.167 12.393602 4.113404 31.583668 -0.848668
2004-02-25 08:25:39 51°10.496 2°40.137 12.394461 4.113615 31.586048 -0.882377
2004-02-25 08:25:44 51°10.49 2°40.106 12.394461 4.113615 31.586048 -0.882377
2004-02-25 08:25:50 51°10.484 2°40.068 12.391521 4.113088 31.581533 -0.882377
2004-02-25 08:25:54 51°10.479 2°40.044 12.389712 4.113194 31.582436 -0.814958
2004-02-25 08:25:59 51°10.474 2°40.012 12.402421 4.113721 31.585229 -0.882377
2004-02-25 08:26:04 51°10.468 2°39.981 12.398622 4.113088 31.580959 -0.848668
2004-02-25 08:26:08 51°10.464 2°39.957 12.397446 4.113404 31.584815 -0.848668
2004-02-25 08:26:14 51°10.457 2°39.92 12.397446 4.113404 31.584815 -0.848668
2004-02-25 08:26:19 51°10.452 2°39.888 12.399255 4.113404 31.583668 -0.882377
2004-02-25 08:26:24 51°10.446 2°39.858 12.397401 4.113088 31.582107 -0.882377
2004-02-25 08:26:28 51°10.442 2°39.833 12.399843 4.113404 31.583668 -0.882377
2004-02-25 08:26:34 51°10.436 2°39.795 12.406852 4.113194 31.581862 -0.882377
2004-02-25 08:26:39 51°10.431 2°39.764 12.396768 4.113194 31.58301 -0.916087
2004-02-25 08:26:44 51°10.425 2°39.732 12.396768 4.113194 31.58301 -0.916087
2004-02-25 08:26:50 51°10.418 2°39.695 12.397446 4.113088 31.580959 -0.882377
2004-02-25 08:26:54 51°10.415 2°39.67 12.408842 4.113299 31.582765 -0.882377
2004-02-25 08:26:59 51°10.409 2°39.639 12.393104 4.113088 31.582107 -0.848668
2004-02-25 08:27:04 51°10.404 2°39.607 12.406038 4.112983 31.581204 -0.882377
2004-02-25 08:27:10 51°10.398 2°39.57 12.402195 4.113088 31.58268 -0.882377
2004-02-25 08:27:14 51°10.394 2°39.545 12.402195 4.113088 31.58268 -0.882377
2004-02-25 08:27:19 51°10.388 2°39.514 12.403461 4.112666 31.579069 -0.882377
2004-02-25 08:27:24 51°10.383 2°39.483 12.412821 4.113194 31.58301 -0.848668
2004-02-25 08:27:30 51°10.377 2°39.445 12.403008 4.112877 31.581448 -0.882377
2004-02-25 08:27:34 51°10.373 2°39.42 12.40536 4.113615 31.586621 -0.882377
2004-02-25 08:27:39 51°10.367 2°39.39 12.410469 4.113088 31.581533 -0.882377
2004-02-25 08:27:44 51°10.363 2°39.359 12.410469 4.113088 31.581533 -0.882377
2004-02-25 08:27:49 51°10.356 2°39.329 12.401154 4.113404 31.585389 -0.882377
2004-02-25 08:27:54 51°10.352 2°39.298 12.417297 4.113404 31.584815 -0.882377
2004-02-25 08:27:59 51°10.346 2°39.267 12.398758 4.113088 31.583254 -0.882377
2004-02-25 08:28:04 51°10.341 2°39.237 12.40536 4.113088 31.58268 -0.882377
2004-02-25 08:28:08 51°10.337 2°39.212 12.410063 4.113194 31.58301 -0.882377
2004-02-25 08:28:14 51°10.331 2°39.175 12.410063 4.113194 31.58301 -0.882377
2004-02-25 08:28:19 51°10.326 2°39.144 12.404139 4.112561 31.578739 -0.882377
2004-02-25 08:28:24 51°10.32 2°39.114 12.404772 4.112983 31.580056 -0.848668
2004-02-25 08:28:30 51°10.314 2°39.077 12.41906 4.113088 31.581533 -0.882377
2004-02-25 08:28:34 51°10.31 2°39.053 12.418246 4.113404 31.584242 -0.882377
2004-02-25 08:28:39 51°10.304 2°39.023 12.40961 4.112877 31.580875 -0.882377
2004-02-25 08:28:44 51°10.299 2°38.992 12.40961 4.112877 31.580875 -0.882377
2004-02-25 08:28:49 51°10.294 2°38.961 12.41264 4.113404 31.584242 -0.848668
2004-02-25 08:28:54 51°10.289 2°38.931 12.411419 4.112561 31.578739 -0.882377
2004-02-25 08:28:59 51°10.284 2°38.898 12.416618 4.113404 31.583668 -0.848668
2004-02-25 08:29:04 51°10.278 2°38.868 12.416347 4.112772 31.579972 -0.882377
2004-02-25 08:29:10 51°10.272 2°38.832 12.419648 4.113615 31.586048 -0.916087
2004-02-25 08:29:14 51°10.267 2°38.808 12.419648 4.113615 31.586048 -0.916087
2004-02-25 08:29:19 51°10.263 2°38.777 12.41915 4.112772 31.579398 -0.882377
2004-02-25 08:29:24 51°10.257 2°38.747 12.40441 4.113194 31.584157 -0.882377
2004-02-25 08:29:28 51°10.254 2°38.722 12.426248 4.113194 31.581862 -0.882377
2004-02-25 08:29:34 51°10.248 2°38.686 12.421094 4.112983 31.58063 -0.882377
2004-02-25 08:29:39 51°10.243 2°38.655 12.424078 4.113299 31.583339 -0.882377
2004-02-25 08:29:44 51°10.238 2°38.625 12.424078 4.113299 31.583339 -0.882377
2004-02-25 08:29:50 51°10.231 2°38.589 12.421863 4.113088 31.580959 -0.882377
2004-02-25 08:29:54 51°10.226 2°38.565 12.418336 4.112983 31.581204 -0.848668
2004-02-25 08:29:58 51°10.223 2°38.54 12.433751 4.113615 31.585474 -0.848668
2004-02-25 08:30:04 51°10.216 2°38.504 12.42236 4.112983 31.581778 -0.848668
2004-02-25 08:30:10 51°10.21 2°38.467 12.429141 4.113299 31.583339 -0.882377
2004-02-25 08:30:14 51°10.205 2°38.443 12.429141 4.113299 31.583339 -0.882377
2004-02-25 08:30:19 51°10.2 2°38.413 12.430135 4.112877 31.579727 -0.882377
2004-02-25 08:30:24 51°10.194 2°38.383 12.414674 4.112983 31.581204 -0.882377
2004-02-25 08:30:29 51°10.19 2°38.352 12.432621 4.113194 31.581862 -0.916087
2004-02-25 08:30:34 51°10.184 2°38.322 12.432621 4.112983 31.582351 -0.882377
2004-02-25 08:30:38 51°10.18 2°38.297 12.430813 4.113299 31.584486 -0.882377
2004-02-25 08:30:44 51°10.174 2°38.26 12.430813 4.113299 31.584486 -0.882377
2004-02-25 08:30:48 51°10.17 2°38.236 12.430723 4.113194 31.582436 -0.882377
2004-02-25 08:30:54 51°10.164 2°38.199 12.430226 4.112983 31.582925 -0.882377
2004-02-25 08:30:58 51°10.16 2°38.174 12.432757 4.112877 31.579154 -0.882377
2004-02-25 08:31:04 51°10.153 2°38.136 12.433345 4.112983 31.581204 -0.848668
2004-02-25 08:31:08 51°10.15 2°38.111 12.433345 4.112983 31.581204 -0.848668
2004-02-25 08:31:14 51°10.143 2°38.075 12.430859 4.113404 31.583094 -0.848668
2004-02-25 08:31:18 51°10.139 2°38.05 12.438226 4.112772 31.579398 -0.848668
2004-02-25 08:31:24 51°10.133 2°38.013 12.442339 4.113615 31.586048 -0.848668
2004-02-25 08:31:28 51°10.129 2°37.988 12.433751 4.112455 31.577263 -0.848668
2004-02-25 08:31:34 51°10.124 2°37.95 12.434701 4.113299 31.583913 -0.848668
2004-02-25 08:31:39 51°10.118 2°37.919 12.439085 4.113088 31.582107 -0.848668
2004-02-25 08:31:44 51°10.114 2°37.888 12.439085 4.113088 31.582107 -0.848668
2004-02-25 08:31:50 51°10.107 2°37.851 12.438633 4.113088 31.583828 -0.848668
2004-02-25 08:31:54 51°10.104 2°37.825 12.439537 4.113194 31.58301 -0.916087
2004-02-25 08:31:59 51°10.099 2°37.794 12.438136 4.113088 31.582107 -0.916087
2004-02-25 08:32:04 51°10.095 2°37.763 12.441842 4.113088 31.581533 -0.848668
2004-02-25 08:32:10 51°10.089 2°37.726 12.436599 4.112666 31.579069 -0.882377
2004-02-25 08:32:14 51°10.084 2°37.701 12.436599 4.112666 31.579069 -0.882377
2004-02-25 08:32:19 51°10.079 2°37.67 12.444824 4.112983 31.58063 -0.848668
2004-02-25 08:32:24 51°10.074 2°37.638 12.447129 4.112772 31.580545 -0.882377
2004-02-25 08:32:28 51°10.07 2°37.613 12.44139 4.112877 31.580301 -0.848668
2004-02-25 08:32:34 51°10.064 2°37.576 12.442339 4.112772 31.581119 -0.814958
2004-02-25 08:32:39 51°10.058 2°37.545 12.450835 4.112983 31.581204 -0.848668
2004-02-25 08:32:44 51°10.053 2°37.514 12.450835 4.112983 31.581204 -0.848668
2004-02-25 08:32:50 51°10.047 2°37.476 12.443514 4.113194 31.584157 -0.882377
2004-02-25 08:32:54 51°10.043 2°37.451 12.456799 4.113299 31.583913 -0.848668
2004-02-25 08:32:59 51°10.037 2°37.42 12.437548 4.112455 31.57841 -0.848668
2004-02-25 08:33:04 51°10.033 2°37.389 12.440215 4.112983 31.581204 -0.916087
2004-02-25 08:33:10 51°10.026 2°37.353 12.455489 4.112983 31.581204 -0.882377
2004-02-25 08:33:14 51°10.022 2°37.328 12.455489 4.112983 31.581204 -0.882377
2004-02-25 08:33:19 51°10.016 2°37.297 12.442836 4.112983 31.581778 -0.848668
2004-02-25 08:33:24 51°10.012 2°37.266 12.448575 4.112772 31.579398 -0.882377
2004-02-25 08:33:28 51°10.007 2°37.241 12.451106 4.113194 31.583583 -0.882377
2004-02-25 08:33:34 51°10.001 2°37.204 12.451693 4.113194 31.584157 -0.882377
2004-02-25 08:33:39 51°9.997 2°37.172 12.454269 4.113194 31.583583 -0.882377
2004-02-25 08:33:44 51°9.991 2°37.142 12.454269 4.113194 31.583583 -0.882377
2004-02-25 08:33:48 51°9.988 2°37.117 12.456709 4.112455 31.577263 -0.848668
2004-02-25 08:33:54 51°9.984 2°37.079 12.457658 4.112983 31.582351 -0.882377
2004-02-25 08:33:58 51°9.982 2°37.054 12.448937 4.11235 31.57636 -0.882377
2004-02-25 08:34:04 51°9.978 2°37.016 12.457296 4.112666 31.579642 -0.882377
2004-02-25 08:34:08 51°9.977 2°36.991 12.46064 4.113088 31.582107 -0.848668
2004-02-25 08:34:14 51°9.975 2°36.953 12.46064 4.113088 31.582107 -0.848668
2004-02-25 08:34:19 51°9.973 2°36.921 12.455353 4.112666 31.579642 -0.882377
2004-02-25 08:34:24 51°9.972 2°36.889 12.451648 4.113088 31.58268 -0.848668
2004-02-25 08:34:30 51°9.972 2°36.851 12.463396 4.112877 31.580875 -0.848668
2004-02-25 08:34:34 51°9.972 2°36.826 12.462447 4.112877 31.580875 -0.882377
2004-02-25 08:34:38 51°9.972 2°36.801 12.463079 4.112877 31.580875 -0.882377
2004-02-25 08:34:44 51°9.973 2°36.763 12.463079 4.112877 31.580875 -0.882377
2004-02-25 08:34:48 51°9.974 2°36.737 12.457387 4.112561 31.578739 -0.882377
2004-02-25 08:34:54 51°9.975 2°36.699 12.468049 4.113299 31.58506 -0.882377
2004-02-25 08:34:58 51°9.976 2°36.674 12.460911 4.112456 31.578984 -0.882377
2004-02-25 08:35:04 51°9.977 2°36.636 12.464841 4.112666 31.580216 -0.848668
2004-02-25 08:35:10 51°9.979 2°36.598 12.464706 4.112877 31.581448 -0.882377
2004-02-25 08:35:14 51°9.98 2°36.573 12.464706 4.112877 31.581448 -0.882377
2004-02-25 08:35:18 51°9.981 2°36.547 12.464209 4.112666 31.58079 -0.848668
2004-02-25 08:35:24 51°9.982 2°36.509 12.469043 4.113088 31.583254 -0.882377
2004-02-25 08:35:28 51°9.983 2°36.483 12.469178 4.112772 31.581119 -0.882377
2004-02-25 08:35:34 51°9.985 2°36.445 12.471302 4.113088 31.583828 -0.882377
2004-02-25 08:35:40 51°9.987 2°36.407 12.462311 4.112561 31.579313 -0.848668
2004-02-25 08:35:44 51°9.988 2°36.381 12.462311 4.112561 31.579313 -0.848668
2004-02-25 08:35:49 51°9.988 2°36.35 12.470714 4.112666 31.580216 -0.848668
2004-02-25 08:35:54 51°9.989 2°36.318 12.468998 4.112666 31.58079 -0.848668
2004-02-25 08:35:59 51°9.99 2°36.286 12.471392 4.113088 31.585549 -0.882377
2004-02-25 08:36:04 51°9.991 2°36.254 12.47478 4.112877 31.582022 -0.882377
2004-02-25 08:36:10 51°9.992 2°36.216 12.475458 4.112877 31.58317 -0.882377
2004-02-25 08:36:14 51°9.993 2°36.19 12.475458 4.112877 31.58317 -0.882377
2004-02-25 08:36:18 51°9.996 2°36.165 12.477174 4.113088 31.584976 -0.848668
2004-02-25 08:36:24 51°10.001 2°36.129 12.478484 4.112983 31.582351 -0.882377
2004-02-25 08:36:30 51°10.007 2°36.093 12.47478 4.11235 31.578655 -0.882377
2004-02-25 08:36:34 51°10.012 2°36.069 12.47225 4.112561 31.579887 -0.848668
2004-02-25 08:36:39 51°10.019 2°36.04 12.477039 4.112561 31.579887 -0.848668
2004-02-25 08:36:44 51°10.027 2°36.012 12.477039 4.112561 31.579887 -0.848668
2004-02-25 08:36:48 51°10.034 2°35.99 12.478981 4.112983 31.583499 -0.848668
2004-02-25 08:36:54 51°10.045 2°35.958 12.4774 4.112666 31.581937 -0.848668
2004-02-25 08:36:59 51°10.055 2°35.931 12.47862 4.112877 31.582596 -0.848668
2004-02-25 08:37:04 51°10.066 2°35.906 12.483994 4.112877 31.58317 -0.882377
2004-02-25 08:37:10 51°10.081 2°35.878 12.485395 4.113299 31.586208 -0.848668
2004-02-25 08:37:14 51°10.091 2°35.86 12.485395 4.113299 31.586208 -0.848668
2004-02-25 08:37:19 51°10.104 2°35.839 12.48282 4.112772 31.58284 -0.916087
2004-02-25 08:37:24 51°10.118 2°35.819 12.481194 4.112666 31.581937 -0.882377
2004-02-25 08:37:28 51°10.13 2°35.805 12.485937 4.112772 31.58284 -0.848668
2004-02-25 08:37:34 51°10.148 2°35.785 12.481555 4.112877 31.58317 -0.882377
2004-02-25 08:37:39 51°10.164 2°35.77 12.481555 4.112877 31.58317 -0.882377
2004-02-25 08:37:44 51°10.18 2°35.758 12.485666 4.113088 31.584976 -0.882377
2004-02-25 08:37:50 51°10.2 2°35.744 12.484672 4.112561 31.581034 -0.848668
2004-02-25 08:37:54 51°10.213 2°35.735 12.484356 4.112561 31.581608 -0.848668
2004-02-25 08:37:58 51°10.227 2°35.727 12.483136 4.112245 31.578899 -0.882377
2004-02-25 08:38:04 51°10.246 2°35.715 12.47731 4.11235 31.579802 -0.848668
2004-02-25 08:38:08 51°10.26 2°35.708 12.490724 4.112772 31.583414 -0.882377
2004-02-25 08:38:14 51°10.281 2°35.7 12.490724 4.112772 31.583414 -0.882377
2004-02-25 08:38:19 51°10.299 2°35.694 12.482865 4.112666 31.581937 -0.882377
2004-02-25 08:38:24 51°10.316 2°35.69 12.488917 4.11235 31.579228 -0.848668
2004-02-25 08:38:30 51°10.337 2°35.685 12.480652 4.112561 31.581034 -0.848668
2004-02-25 08:38:34 51°10.351 2°35.684 12.492711 4.112877 31.584317 -0.882377
2004-02-25 08:38:39 51°10.369 2°35.684 12.489324 4.112772 31.583414 -0.882377
2004-02-25 08:38:44 51°10.387 2°35.684 12.489324 4.112772 31.583414 -0.882377
2004-02-25 08:38:48 51°10.401 2°35.685 12.489595 4.112666 31.583085 -0.848668
2004-02-25 08:38:54 51°10.422 2°35.688 12.489369 4.112772 31.584562 -0.882377
2004-02-25 08:38:58 51°10.436 2°35.691 12.497181 4.113194 31.586452 -0.882377
2004-02-25 08:39:04 51°10.456 2°35.697 12.487337 4.112877 31.584317 -0.882377
2004-02-25 08:39:08 51°10.47 2°35.702 12.49384 4.112666 31.581937 -0.882377
2004-02-25 08:39:14 51°10.49 2°35.71 12.49384 4.112666 31.581937 -0.882377
2004-02-25 08:39:19 51°10.507 2°35.717 12.483994 4.11235 31.580376 -0.882377
2004-02-25 08:39:24 51°10.524 2°35.725 12.497543 4.113194 31.587026 -0.882377
2004-02-25 08:39:28 51°10.537 2°35.731 12.490995 4.112772 31.583988 -0.848668
2004-02-25 08:39:34 51°10.557 2°35.741 12.498491 4.112983 31.585794 -0.882377
2004-02-25 08:39:39 51°10.574 2°35.748 12.492575 4.112877 31.584891 -0.848668
2004-02-25 08:39:44 51°10.591 2°35.757 12.492575 4.112877 31.584891 -0.848668
2004-02-25 08:39:48 51°10.604 2°35.765 12.497046 4.112666 31.582511 -0.848668
2004-02-25 08:39:54 51°10.623 2°35.777 12.497091 4.112666 31.583085 -0.882377
2004-02-25 08:39:58 51°10.636 2°35.787 12.491266 4.112139 31.579144 -0.882377
2004-02-25 08:40:04 51°10.655 2°35.801 12.499665 4.113194 31.586452 -0.848668
2004-02-25 08:40:09 51°10.671 2°35.813 12.498717 4.112666 31.582511 -0.916087
2004-02-25 08:40:14 51°10.687 2°35.826 12.498717 4.112666 31.582511 -0.916087
2004-02-25 08:40:19 51°10.703 2°35.837 12.489369 4.112877 31.583743 -0.848668
2004-02-25 08:40:24 51°10.718 2°35.85 12.499213 4.112772 31.585136 -0.848668
2004-02-25 08:40:30 51°10.736 2°35.865 12.498581 4.11235 31.58095 -0.882377
2004-02-25 08:40:34 51°10.749 2°35.874 12.499755 4.113194 31.588174 -0.882377
2004-02-25 08:40:39 51°10.764 2°35.888 12.506257 4.113194 31.588174 -0.848668
2004-02-25 08:40:44 51°10.78 2°35.899 12.506257 4.113194 31.588174 -0.848668
2004-02-25 08:40:50 51°10.799 2°35.914 12.493072 4.112245 31.581768 -0.848668
2004-02-25 08:40:54 51°10.811 2°35.924 12.504 4.112772 31.584562 -0.882377
2004-02-25 08:40:59 51°10.827 2°35.937 12.494743 4.11235 31.579802 -0.882377
2004-02-25 08:41:04 51°10.842 2°35.949 12.493885 4.112456 31.581853 -0.882377
2004-02-25 08:41:08 51°10.855 2°35.96 12.509327 4.112877 31.58317 -0.848668
2004-02-25 08:41:14 51°10.873 2°35.976 12.509327 4.112877 31.58317 -0.848668
2004-02-25 08:41:19 51°10.888 2°35.99 12.504587 4.112983 31.584646 -0.848668
2004-02-25 08:41:24 51°10.903 2°36.004 12.507296 4.112877 31.583743 -0.882377
2004-02-25 08:41:30 51°10.921 2°36.022 12.500478 4.112561 31.582182 -0.882377
2004-02-25 08:41:34 51°10.933 2°36.033 12.506935 4.112666 31.583085 -0.848668
2004-02-25 08:41:39 51°10.948 2°36.049 12.50698 4.112983 31.585794 -0.882377
2004-02-25 08:41:44 51°10.963 2°36.063 12.50698 4.112983 31.585794 -0.882377
2004-02-25 08:41:48 51°10.974 2°36.076 12.502194 4.112245 31.58062 -0.882377
2004-02-25 08:41:54 51°10.992 2°36.093 12.509192 4.112877 31.586613 -0.848668
2004-02-25 08:41:59 51°11.007 2°36.108 12.510276 4.113088 31.587845 -0.882377
2004-02-25 08:42:04 51°11.022 2°36.122 12.515693 4.112666 31.584233 -0.882377
2004-02-25 08:42:10 51°11.04 2°36.14 12.506573 4.112983 31.586942 -0.848668
2004-02-25 08:42:14 51°11.052 2°36.152 12.506573 4.112983 31.586942 -0.848668
2004-02-25 08:42:18 51°11.064 2°36.165 12.516641 4.112983 31.58522 -0.848668
2004-02-25 08:42:24 51°11.082 2°36.182 12.507476 4.11235 31.581524 -0.882377
2004-02-25 08:42:28 51°11.093 2°36.194 12.513662 4.112666 31.583659 -0.882377
2004-02-25 08:42:34 51°11.111 2°36.211 12.506032 4.11235 31.581524 -0.848668
2004-02-25 08:42:39 51°11.126 2°36.225 12.504948 4.11235 31.581524 -0.882377
2004-02-25 08:42:44 51°11.141 2°36.24 12.504948 4.11235 31.581524 -0.882377
2004-02-25 08:42:48 51°11.153 2°36.251 12.520659 4.112983 31.585794 -0.848668
2004-02-25 08:42:54 51°11.17 2°36.268 12.509011 4.112456 31.582427 -0.882377
2004-02-25 08:42:59 51°11.185 2°36.283 12.506528 4.112561 31.582756 -0.882377
2004-02-25 08:43:04 51°11.2 2°36.297 12.519304 4.112772 31.583988 -0.848668
2004-02-25 08:43:08 51°11.212 2°36.309 12.506348 4.111928 31.577338 -0.882377
2004-02-25 08:43:14 51°11.23 2°36.327 12.506348 4.111928 31.577338 -0.882377
2004-02-25 08:43:20 51°11.248 2°36.344 12.514203 4.112877 31.585465 -0.882377
2004-02-25 08:43:24 51°11.26 2°36.355 12.517815 4.112666 31.583659 -0.882377
2004-02-25 08:43:29 51°11.275 2°36.37 12.509914 4.112772 31.584562 -0.882377
2004-02-25 08:43:34 51°11.289 2°36.384 12.516099 4.112772 31.583988 -0.916087
2004-02-25 08:43:38 51°11.301 2°36.396 12.523728 4.113088 31.588419 -0.882377
2004-02-25 08:43:44 51°11.318 2°36.413 12.523728 4.113088 31.588419 -0.882377
2004-02-25 08:43:50 51°11.336 2°36.431 12.527565 4.112877 31.584891 -0.882377
2004-02-25 08:43:54 51°11.348 2°36.442 12.508063 4.112561 31.582756 -0.882377
2004-02-25 08:43:59 51°11.362 2°36.457 12.518402 4.112666 31.582511 -0.882377
2004-02-25 08:44:04 51°11.378 2°36.47 12.527655 4.113088 31.586697 -0.848668
2004-02-25 08:44:10 51°11.395 2°36.488 12.517093 4.112666 31.584233 -0.882377
2004-02-25 08:44:14 51°11.407 2°36.5 12.517093 4.112666 31.584233 -0.882377
2004-02-25 08:44:19 51°11.422 2°36.514 12.524225 4.112772 31.584562 -0.882377
2004-02-25 08:44:24 51°11.437 2°36.529 12.531717 4.112983 31.585794 -0.882377
2004-02-25 08:44:28 51°11.449 2°36.54 12.520975 4.112561 31.582756 -0.882377
2004-02-25 08:44:34 51°11.467 2°36.558 12.524225 4.112666 31.584233 -0.882377
2004-02-25 08:44:39 51°11.481 2°36.572 12.530228 4.112772 31.583988 -0.882377
2004-02-25 08:44:44 51°11.496 2°36.587 12.530228 4.112772 31.583988 -0.882377
2004-02-25 08:44:50 51°11.514 2°36.604 12.531898 4.113088 31.586697 -0.882377
2004-02-25 08:44:54 51°11.525 2°36.617 12.523141 4.112034 31.578241 -0.882377
2004-02-25 08:44:59 51°11.54 2°36.631 12.529822 4.112877 31.586039 -0.848668
2004-02-25 08:45:04 51°11.555 2°36.646 12.529325 4.112983 31.586368 -0.848668
2004-02-25 08:45:09 51°11.57 2°36.661 12.536501 4.112772 31.584562 -0.882377
2004-02-25 08:45:14 51°11.585 2°36.675 12.536501 4.112772 31.584562 -0.882377
2004-02-25 08:45:18 51°11.597 2°36.687 12.53271 4.112456 31.583 -0.882377
2004-02-25 08:45:24 51°11.614 2°36.705 12.523548 4.112561 31.582756 -0.882377
2004-02-25 08:45:30 51°11.632 2°36.723 12.537314 4.112666 31.584233 -0.916087
2004-02-25 08:45:34 51°11.644 2°36.735 12.514023 4.112772 31.58571 -0.882377
2004-02-25 08:45:39 51°11.659 2°36.75 12.540788 4.113088 31.587271 -0.882377
2004-02-25 08:45:44 51°11.674 2°36.765 12.540788 4.113088 31.587271 -0.882377
2004-02-25 08:45:50 51°11.691 2°36.782 12.520884 4.112456 31.583 -0.916087
2004-02-25 08:45:54 51°11.703 2°36.794 12.5328 4.112561 31.58333 -0.882377
2004-02-25 08:45:59 51°11.718 2°36.808 12.526256 4.112666 31.584233 -0.848668
2004-02-25 08:46:04 51°11.733 2°36.824 12.537675 4.11235 31.581524 -0.882377
2004-02-25 08:46:10 51°11.751 2°36.84 12.529325 4.112561 31.583904 -0.848668
2004-02-25 08:46:14 51°11.762 2°36.853 12.529325 4.112561 31.583904 -0.848668
2004-02-25 08:46:19 51°11.778 2°36.867 12.534606 4.112772 31.584562 -0.848668
2004-02-25 08:46:24 51°11.793 2°36.881 12.531853 4.11235 31.582097 -0.882377
2004-02-25 08:46:30 51°11.811 2°36.899 12.544263 4.112983 31.586942 -0.848668
2004-02-25 08:46:34 51°11.823 2°36.91 12.532936 4.11235 31.581524 -0.882377
2004-02-25 08:46:39 51°11.838 2°36.925 12.538397 4.11235 31.582097 -0.882377
2004-02-25 08:46:44 51°11.852 2°36.94 12.538397 4.11235 31.582097 -0.882377
2004-02-25 08:46:50 51°11.87 2°36.957 12.545075 4.113194 31.589322 -0.848668
2004-02-25 08:46:54 51°11.881 2°36.969 12.541871 4.112877 31.586039 -0.882377
2004-02-25 08:46:59 51°11.896 2°36.983 12.544714 4.112666 31.584807 -0.882377
2004-02-25 08:47:04 51°11.911 2°36.998 12.542458 4.112772 31.587432 -0.882377
2004-02-25 08:47:10 51°11.929 2°37.015 12.534515 4.112034 31.579962 -0.848668
2004-02-25 08:47:14 51°11.94 2°37.026 12.534515 4.112034 31.579962 -0.848668
2004-02-25 08:47:19 51°11.955 2°37.041 12.541826 4.113194 31.589896 -0.882377
2004-02-25 08:47:24 51°11.97 2°37.055 12.542097 4.112772 31.58571 -0.882377
2004-02-25 08:47:28 51°11.982 2°37.067 12.546384 4.112772 31.58571 -0.848668
2004-02-25 08:47:34 51°12 2°37.084 12.552385 4.112877 31.587187 -0.882377
2004-02-25 08:47:39 51°12.014 2°37.099 12.550535 4.112666 31.584807 -0.882377
2004-02-25 08:47:44 51°12.029 2°37.113 12.550535 4.112666 31.584807 -0.882377
2004-02-25 08:47:50 51°12.047 2°37.13 12.541285 4.11235 31.582671 -0.882377
2004-02-25 08:47:54 51°12.059 2°37.141 12.536005 4.112245 31.582342 -0.882377
2004-02-25 08:47:58 51°12.071 2°37.153 12.551798 4.112772 31.58571 -0.882377
2004-02-25 08:48:04 51°12.089 2°37.17 12.553107 4.112666 31.585381 -0.882377
2004-02-25 08:48:08 51°12.1 2°37.181 12.545707 4.112139 31.580865 -0.882377
2004-02-25 08:48:14 51°12.118 2°37.199 12.545707 4.112139 31.580865 -0.882377
2004-02-25 08:48:19 51°12.132 2°37.213 12.540563 4.112666 31.584807 -0.882377
2004-02-25 08:48:24 51°12.147 2°37.228 12.557122 4.112666 31.585381 -0.848668
2004-02-25 08:48:30 51°12.165 2°37.245 12.54318 4.112245 31.581768 -0.882377
2004-02-25 08:48:34 51°12.176 2°37.257 12.56001 4.113299 31.590225 -0.882377
2004-02-25 08:48:39 51°12.191 2°37.271 12.5379 4.112034 31.580536 -0.882377
2004-02-25 08:48:44 51°12.206 2°37.286 12.5379 4.112034 31.580536 -0.882377
2004-02-25 08:48:50 51°12.223 2°37.303 12.552205 4.112772 31.58571 -0.848668
2004-02-25 08:48:54 51°12.235 2°37.314 12.559423 4.112245 31.581768 -0.882377
2004-02-25 08:48:59 51°12.249 2°37.329 12.547738 4.112877 31.586039 -0.916087
2004-02-25 08:49:04 51°12.264 2°37.343 12.567002 4.112772 31.58571 -0.848668
2004-02-25 08:49:10 51°12.281 2°37.36 12.54124 4.111612 31.578645 -0.882377
2004-02-25 08:49:14 51°12.293 2°37.372 12.54124 4.111612 31.578645 -0.882377
2004-02-25 08:49:19 51°12.307 2°37.386 12.551392 4.112245 31.581768 -0.882377
2004-02-25 08:49:24 51°12.322 2°37.4 12.569122 4.112877 31.586613 -0.848668
2004-02-25 08:49:30 51°12.339 2°37.417 12.550806 4.112245 31.581768 -0.882377
2004-02-25 08:49:34 51°12.351 2°37.429 12.561904 4.113088 31.588993 -0.882377
2004-02-25 08:49:39 51°12.366 2°37.442 12.551031 4.112139 31.581439 -0.848668
2004-02-25 08:49:44 51°12.381 2°37.456 12.551031 4.112139 31.581439 -0.848668
2004-02-25 08:49:49 51°12.396 2°37.471 12.557934 4.112245 31.582342 -0.882377
2004-02-25 08:49:54 51°12.41 2°37.485 12.553919 4.112772 31.586858 -0.848668
2004-02-25 08:49:59 51°12.424 2°37.499 12.570836 4.113194 31.589896 -0.848668
2004-02-25 08:50:04 51°12.439 2°37.514 12.557122 4.111718 31.578974 -0.882377
2004-02-25 08:50:08 51°12.451 2°37.526 12.549407 4.112245 31.582916 -0.882377
2004-02-25 08:50:14 51°12.468 2°37.542 12.549407 4.112245 31.582916 -0.882377
2004-02-25 08:50:19 51°12.483 2°37.557 12.577512 4.113194 31.588174 -0.882377
2004-02-25 08:50:24 51°12.497 2°37.57 12.559017 4.112245 31.582916 -0.882377
2004-02-25 08:50:28 51°12.509 2°37.582 12.557393 4.112456 31.584148 -0.882377
2004-02-25 08:50:34 51°12.526 2°37.599 12.563438 4.112666 31.585381 -0.882377
2004-02-25 08:50:39 51°12.541 2°37.613 12.575933 4.11235 31.583245 -0.882377
2004-02-25 08:50:44 51°12.555 2°37.628 12.575933 4.11235 31.583245 -0.882377
2004-02-25 08:50:49 51°12.57 2°37.641 12.553693 4.112456 31.584722 -0.848668
2004-02-25 08:50:54 51°12.585 2°37.655 12.567498 4.113194 31.59047 -0.882377
2004-02-25 08:50:59 51°12.6 2°37.668 12.578053 4.112772 31.587432 -0.882377
2004-02-25 08:51:04 51°12.615 2°37.682 12.552611 4.112561 31.585625 -0.848668
2004-02-25 08:51:10 51°12.633 2°37.699 12.568175 4.11235 31.583245 -0.882377
2004-02-25 08:51:14 51°12.645 2°37.71 12.568175 4.11235 31.583245 -0.882377
2004-02-25 08:51:19 51°12.66 2°37.723 12.560912 4.112245 31.582342 -0.882377
2004-02-25 08:51:24 51°12.675 2°37.737 12.558882 4.111718 31.578974 -0.848668
2004-02-25 08:51:28 51°12.688 2°37.746 12.572099 4.112666 31.587102 -0.848668
2004-02-25 08:51:34 51°12.706 2°37.763 12.571919 4.112456 31.584148 -0.916087
2004-02-25 08:51:38 51°12.718 2°37.773 12.57246 4.11235 31.583819 -0.882377
2004-02-25 08:51:44 51°12.736 2°37.789 12.57246 4.11235 31.583819 -0.882377
2004-02-25 08:51:50 51°12.755 2°37.805 12.566776 4.11235 31.583819 -0.848668
2004-02-25 08:51:54 51°12.767 2°37.817 12.567498 4.112561 31.586199 -0.882377
2004-02-25 08:51:58 51°12.779 2°37.827 12.575347 4.111507 31.577742 -0.848668
2004-02-25 08:52:04 51°12.796 2°37.845 12.571377 4.112666 31.586528 -0.848668
2004-02-25 08:52:09 51°12.81 2°37.859 12.584998 4.112877 31.587761 -0.848668
2004-02-25 08:52:14 51°12.825 2°37.874 12.584998 4.112877 31.587761 -0.848668
2004-02-25 08:52:19 51°12.84 2°37.888 12.568536 4.112245 31.58349 -0.882377
2004-02-25 08:52:24 51°12.855 2°37.902 12.580849 4.112561 31.586773 -0.848668
2004-02-25 08:52:28 51°12.867 2°37.914 12.589688 4.112983 31.588664 -0.882377
2004-02-25 08:52:34 51°12.885 2°37.93 12.563574 4.111507 31.577742 -0.882377
2004-02-25 08:52:39 51°12.9 2°37.944 12.593115 4.113299 31.590799 -0.848668
2004-02-25 08:52:44 51°12.913 2°37.959 12.593115 4.113299 31.590799 -0.848668
2004-02-25 08:52:48 51°12.925 2°37.97 12.591041 4.112877 31.587187 -0.882377
2004-02-25 08:52:54 51°12.942 2°37.987 12.582518 4.112245 31.584064 -0.882377
2004-02-25 08:52:59 51°12.957 2°38.001 12.58838 4.112034 31.580536 -0.882377
2004-02-25 08:53:04 51°12.971 2°38.015 12.584322 4.111718 31.577827 -0.848668
2004-02-25 08:53:08 51°12.983 2°38.027 12.566867 4.112034 31.580536 -0.916087
2004-02-25 08:53:14 51°13.001 2°38.044 12.566867 4.112034 31.580536 -0.916087
2004-02-25 08:53:18 51°13.012 2°38.055 12.577827 4.112456 31.583574 -0.882377
2004-02-25 08:53:24 51°13.03 2°38.072 12.596767 4.112139 31.583161 -0.882377
2004-02-25 08:53:29 51°13.044 2°38.086 12.57891 4.111718 31.578974 -0.848668
2004-02-25 08:53:34 51°13.06 2°38.1 12.585855 4.112772 31.58858 -0.848668
2004-02-25 08:53:39 51°13.074 2°38.113 12.584006 4.111823 31.580451 -0.848668
2004-02-25 08:53:44 51°13.088 2°38.129 12.584006 4.111823 31.580451 -0.848668
2004-02-25 08:53:48 51°13.101 2°38.138 12.589508 4.112983 31.589238 -0.916087
2004-02-25 08:53:54 51°13.119 2°38.156 12.581571 4.111928 31.579633 -0.882377
2004-02-25 08:53:58 51°13.131 2°38.167 12.572234 4.111296 31.577657 -0.882377